SWR41G KLAX-LSZH
Flight info
| Callsign | SWR41G |
|---|---|
| Flight time | 10h 57m |
| Altitude | 33000 |
| Route | DOTSS2 CNERY DCT BLH J169 KOFFA J65 PXR DCT KA21Q DCT KA27U DCT KK36A DCT KK48G DCT SPI DCT GIJ/N0492F350 DCT SVM DCT DERLO Q907 SIKBO DCT IPTOS DCT KEMVI Q852 TAMKO Q941 AGLUK DCT BAREE N793B JANJO/M084F360 DCT 56N050W 57N040W 58N030W 58N020W DCT SUNOT DCT KESIX/N0489F370 DCT REVNU DCT CON DCT LIPGO DCT NUCHU DCT BOGNA UL612 VEULE/N0485F350 DCT TEPRI UN491 POGZI DCT GELTA DCT MANAG DCT PEVIT DCT BLM |
| Aircraft | B77W/H-SDE1E2E3FGHIJ2J3J4J5M1RWXY/LB1D1 |
Departure
| Time | 2026-05-07 07:07 |
|---|---|
| Airport | Los Angeles International Airport (KLAX) |
Arrival
| Time | 2026-05-07 18:04 |
|---|---|
| Airport | Zürich Airport (LSZH) |
| Time | Latitude | Longitude | Altitude | Speed | Heading |
|---|---|---|---|---|---|
| 2026-05-07 06:23 | 33.94176 | -118.41107 | 111 ft | 0 kts | 83° |
| 2026-05-07 06:54 | 33.94173 | -118.41134 | 112 ft | 4 kts | 83° |
| 2026-05-07 06:54 | 33.94170 | -118.41166 | 110 ft | 4 kts | 83° |
| 2026-05-07 06:55 | 33.94167 | -118.41196 | 112 ft | 4 kts | 94° |
| 2026-05-07 06:55 | 33.94175 | -118.41214 | 112 ft | 4 kts | 176° |
| 2026-05-07 06:55 | 33.94201 | -118.41213 | 112 ft | 4 kts | 179° |
| 2026-05-07 06:55 | 33.94214 | -118.41214 | 110 ft | 1 kts | 173° |
| 2026-05-07 06:56 | 33.94215 | -118.41214 | 112 ft | 0 kts | 173° |
| 2026-05-07 06:59 | 33.94204 | -118.41212 | 112 ft | 6 kts | 173° |
| 2026-05-07 06:59 | 33.94135 | -118.41202 | 111 ft | 11 kts | 173° |
| 2026-05-07 06:59 | 33.94058 | -118.41190 | 112 ft | 11 kts | 173° |
| 2026-05-07 06:59 | 33.93981 | -118.41178 | 111 ft | 11 kts | 173° |
| 2026-05-07 07:00 | 33.93904 | -118.41167 | 111 ft | 11 kts | 173° |
| 2026-05-07 07:00 | 33.93826 | -118.41156 | 111 ft | 11 kts | 174° |
| 2026-05-07 07:00 | 33.93773 | -118.41102 | 113 ft | 11 kts | 99° |
| 2026-05-07 07:00 | 33.93775 | -118.41009 | 114 ft | 11 kts | 82° |
| 2026-05-07 07:01 | 33.93785 | -118.40916 | 115 ft | 11 kts | 83° |
| 2026-05-07 07:01 | 33.93795 | -118.40823 | 111 ft | 11 kts | 83° |
| 2026-05-07 07:01 | 33.93805 | -118.40724 | 113 ft | 15 kts | 83° |
| 2026-05-07 07:01 | 33.93822 | -118.40556 | 113 ft | 24 kts | 83° |
| 2026-05-07 07:02 | 33.93843 | -118.40354 | 114 ft | 24 kts | 83° |
| 2026-05-07 07:02 | 33.93864 | -118.40152 | 114 ft | 24 kts | 83° |
| 2026-05-07 07:02 | 33.93885 | -118.39949 | 113 ft | 24 kts | 83° |
| 2026-05-07 07:02 | 33.93904 | -118.39748 | 113 ft | 24 kts | 83° |
| 2026-05-07 07:03 | 33.93924 | -118.39545 | 113 ft | 24 kts | 83° |
| 2026-05-07 07:03 | 33.93944 | -118.39343 | 111 ft | 24 kts | 83° |
| 2026-05-07 07:03 | 33.93966 | -118.39142 | 109 ft | 24 kts | 82° |
| 2026-05-07 07:03 | 33.93987 | -118.38940 | 111 ft | 24 kts | 83° |
| 2026-05-07 07:04 | 33.94007 | -118.38738 | 110 ft | 24 kts | 83° |
| 2026-05-07 07:04 | 33.94027 | -118.38537 | 110 ft | 24 kts | 83° |
| 2026-05-07 07:04 | 33.94048 | -118.38347 | 111 ft | 18 kts | 83° |
| 2026-05-07 07:04 | 33.94064 | -118.38195 | 112 ft | 18 kts | 83° |
| 2026-05-07 07:05 | 33.94077 | -118.38068 | 112 ft | 11 kts | 83° |
| 2026-05-07 07:05 | 33.94045 | -118.38007 | 110 ft | 8 kts | 156° |
| 2026-05-07 07:05 | 33.93995 | -118.37999 | 111 ft | 8 kts | 214° |
| 2026-05-07 07:05 | 33.93978 | -118.38062 | 113 ft | 8 kts | 264° |
| 2026-05-07 07:06 | 33.93976 | -118.38086 | 113 ft | 0 kts | 264° |
| 2026-05-07 07:06 | 33.93975 | -118.38094 | 113 ft | 7 kts | 264° |
| 2026-05-07 07:06 | 33.93955 | -118.38324 | 113 ft | 58 kts | 263° |
| 2026-05-07 07:07 | 33.93876 | -118.39084 | 112 ft | 123 kts | 263° |
| 2026-05-07 07:07 | 33.93747 | -118.40325 | 117 ft | 174 kts | 263° |
| 2026-05-07 07:07 | 33.93583 | -118.41893 | 348 ft | 191 kts | 263° |
| 2026-05-07 07:07 | 33.93405 | -118.43464 | 936 ft | 192 kts | 262° |
| 2026-05-07 07:08 | 33.93239 | -118.45063 | 1474 ft | 192 kts | 263° |
| 2026-05-07 07:08 | 33.93048 | -118.46666 | 1888 ft | 198 kts | 253° |
| 2026-05-07 07:08 | 33.92301 | -118.48124 | 1967 ft | 217 kts | 222° |
| 2026-05-07 07:08 | 33.91111 | -118.49352 | 2145 ft | 234 kts | 223° |
| 2026-05-07 07:09 | 33.89935 | -118.50788 | 2480 ft | 248 kts | 229° |
| 2026-05-07 07:09 | 33.88772 | -118.52381 | 2919 ft | 258 kts | 230° |
| 2026-05-07 07:09 | 33.87590 | -118.54046 | 3480 ft | 265 kts | 230° |
| 2026-05-07 07:09 | 33.86230 | -118.55541 | 4000 ft | 269 kts | 207° |
| 2026-05-07 07:10 | 33.84418 | -118.56024 | 4549 ft | 274 kts | 175° |
| 2026-05-07 07:10 | 33.82556 | -118.55576 | 5104 ft | 275 kts | 167° |
| 2026-05-07 07:10 | 33.80670 | -118.55054 | 5667 ft | 280 kts | 167° |
| 2026-05-07 07:10 | 33.78761 | -118.54534 | 6306 ft | 282 kts | 167° |
| 2026-05-07 07:11 | 33.76839 | -118.54011 | 6923 ft | 285 kts | 167° |
| 2026-05-07 07:11 | 33.74897 | -118.53484 | 7535 ft | 287 kts | 167° |
| 2026-05-07 07:11 | 33.72942 | -118.52955 | 8107 ft | 290 kts | 167° |
| 2026-05-07 07:11 | 33.70995 | -118.52299 | 8587 ft | 292 kts | 152° |
| 2026-05-07 07:12 | 33.69459 | -118.50734 | 8984 ft | 294 kts | 121° |
| 2026-05-07 07:12 | 33.68622 | -118.48504 | 9469 ft | 293 kts | 108° |
| 2026-05-07 07:12 | 33.67950 | -118.46187 | 10022 ft | 294 kts | 108° |
| 2026-05-07 07:12 | 33.67268 | -118.43848 | 10472 ft | 303 kts | 107° |
| 2026-05-07 07:13 | 33.66548 | -118.41377 | 10625 ft | 323 kts | 107° |
| 2026-05-07 07:13 | 33.65777 | -118.38758 | 10799 ft | 342 kts | 107° |
| 2026-05-07 07:13 | 33.64958 | -118.35990 | 10960 ft | 361 kts | 107° |
| 2026-05-07 07:13 | 33.64321 | -118.33053 | 11137 ft | 368 kts | 92° |
| 2026-05-07 07:14 | 33.64316 | -118.29973 | 11576 ft | 373 kts | 86° |
| 2026-05-07 07:14 | 33.64382 | -118.26861 | 12391 ft | 373 kts | 87° |
| 2026-05-07 07:14 | 33.64422 | -118.23751 | 13298 ft | 373 kts | 87° |
| 2026-05-07 07:14 | 33.64447 | -118.20624 | 14024 ft | 377 kts | 87° |
| 2026-05-07 07:15 | 33.64462 | -118.17460 | 14685 ft | 383 kts | 88° |
| 2026-05-07 07:15 | 33.64467 | -118.14243 | 15371 ft | 388 kts | 88° |
| 2026-05-07 07:15 | 33.64467 | -118.11003 | 16087 ft | 391 kts | 88° |
| 2026-05-07 07:15 | 33.64467 | -118.07712 | 16786 ft | 395 kts | 88° |
| 2026-05-07 07:16 | 33.64462 | -118.04408 | 17465 ft | 398 kts | 88° |
| 2026-05-07 07:16 | 33.64457 | -118.01065 | 18092 ft | 403 kts | 88° |
| 2026-05-07 07:16 | 33.64452 | -117.97691 | 18700 ft | 407 kts | 88° |
| 2026-05-07 07:16 | 33.64445 | -117.94280 | 19332 ft | 410 kts | 88° |
| 2026-05-07 07:17 | 33.64440 | -117.90836 | 19951 ft | 414 kts | 87° |
| 2026-05-07 07:17 | 33.64433 | -117.87372 | 20539 ft | 417 kts | 87° |
| 2026-05-07 07:17 | 33.64425 | -117.83874 | 21091 ft | 421 kts | 87° |
| 2026-05-07 07:17 | 33.64406 | -117.80343 | 21633 ft | 426 kts | 89° |
| 2026-05-07 07:18 | 33.63984 | -117.76801 | 22106 ft | 435 kts | 102° |
| 2026-05-07 07:18 | 33.63097 | -117.73314 | 22623 ft | 439 kts | 104° |
| 2026-05-07 07:18 | 33.62157 | -117.69819 | 23119 ft | 443 kts | 104° |
| 2026-05-07 07:18 | 33.61215 | -117.66278 | 23611 ft | 446 kts | 104° |
| 2026-05-07 07:19 | 33.60690 | -117.64261 | 23882 ft | 447 kts | 103° |
| 2026-05-07 07:19 | 33.59774 | -117.60668 | 24344 ft | 451 kts | 103° |
| 2026-05-07 07:19 | 33.58869 | -117.57055 | 24817 ft | 454 kts | 102° |
| 2026-05-07 07:19 | 33.57968 | -117.53423 | 25296 ft | 456 kts | 102° |
| 2026-05-07 07:20 | 33.57063 | -117.49759 | 25730 ft | 459 kts | 102° |
| 2026-05-07 07:20 | 33.56148 | -117.46058 | 26162 ft | 462 kts | 102° |
| 2026-05-07 07:20 | 33.55232 | -117.42368 | 26592 ft | 464 kts | 102° |
| 2026-05-07 07:20 | 33.54308 | -117.38644 | 26998 ft | 467 kts | 102° |
| 2026-05-07 07:21 | 33.53375 | -117.34909 | 27417 ft | 469 kts | 102° |
| 2026-05-07 07:21 | 33.52437 | -117.31151 | 27819 ft | 471 kts | 102° |
| 2026-05-07 07:21 | 33.51509 | -117.27435 | 28191 ft | 473 kts | 102° |
| 2026-05-07 07:21 | 33.50576 | -117.23586 | 28542 ft | 474 kts | 99° |
| 2026-05-07 07:22 | 33.50141 | -117.19708 | 28854 ft | 469 kts | 88° |
| 2026-05-07 07:22 | 33.50125 | -117.15813 | 29218 ft | 468 kts | 85° |
| 2026-05-07 07:22 | 33.50163 | -117.11904 | 29539 ft | 470 kts | 85° |
| 2026-05-07 07:22 | 33.50194 | -117.08036 | 29832 ft | 471 kts | 85° |
| 2026-05-07 07:23 | 33.50198 | -117.04105 | 30171 ft | 472 kts | 86° |
| 2026-05-07 07:23 | 33.50172 | -117.00174 | 30557 ft | 471 kts | 86° |
| 2026-05-07 07:23 | 33.50125 | -116.96251 | 30922 ft | 470 kts | 86° |
| 2026-05-07 07:23 | 33.50068 | -116.92344 | 31275 ft | 469 kts | 86° |
| 2026-05-07 07:24 | 33.50005 | -116.88445 | 31661 ft | 467 kts | 86° |
| 2026-05-07 07:24 | 33.49942 | -116.84560 | 31983 ft | 466 kts | 86° |
| 2026-05-07 07:24 | 33.49878 | -116.80684 | 32256 ft | 466 kts | 86° |
| 2026-05-07 07:24 | 33.49816 | -116.76804 | 32554 ft | 465 kts | 86° |
| 2026-05-07 07:25 | 33.49689 | -116.69093 | 33027 ft | 467 kts | 86° |
| 2026-05-07 07:25 | 33.49626 | -116.65209 | 33093 ft | 467 kts | 86° |
| 2026-05-07 07:26 | 33.49490 | -116.57423 | 33064 ft | 463 kts | 86° |
| 2026-05-07 07:26 | 33.49350 | -116.49743 | 33046 ft | 460 kts | 86° |
| 2026-05-07 07:27 | 33.49209 | -116.42094 | 33013 ft | 460 kts | 86° |
| 2026-05-07 07:27 | 33.49091 | -116.34496 | 33023 ft | 459 kts | 86° |
| 2026-05-07 07:28 | 33.48982 | -116.26785 | 33007 ft | 461 kts | 86° |
| 2026-05-07 07:28 | 33.48865 | -116.19078 | 33006 ft | 463 kts | 86° |
| 2026-05-07 07:29 | 33.48741 | -116.11394 | 32997 ft | 464 kts | 86° |
| 2026-05-07 07:29 | 33.48702 | -116.03673 | 32977 ft | 460 kts | 80° |
| 2026-05-07 07:29 | 33.49406 | -115.99985 | 33013 ft | 447 kts | 66° |
| 2026-05-07 07:30 | 33.50528 | -115.96518 | 32997 ft | 448 kts | 66° |
| 2026-05-07 07:30 | 33.52692 | -115.89484 | 32998 ft | 451 kts | 68° |
| 2026-05-07 07:31 | 33.54782 | -115.82367 | 32979 ft | 454 kts | 68° |
| 2026-05-07 07:31 | 33.56849 | -115.75257 | 32984 ft | 456 kts | 68° |
| 2026-05-07 07:32 | 33.58939 | -115.68073 | 32988 ft | 457 kts | 68° |
| 2026-05-07 07:32 | 33.61026 | -115.60872 | 32991 ft | 456 kts | 68° |
| 2026-05-07 07:32 | 33.61836 | -115.57194 | 32975 ft | 459 kts | 79° |
| 2026-05-07 07:33 | 33.61860 | -115.53364 | 33013 ft | 460 kts | 89° |
| 2026-05-07 07:33 | 33.61517 | -115.45694 | 33007 ft | 460 kts | 88° |
| 2026-05-07 07:34 | 33.61294 | -115.38001 | 32992 ft | 462 kts | 88° |
| 2026-05-07 07:34 | 33.61105 | -115.30289 | 32996 ft | 463 kts | 88° |
| 2026-05-07 07:35 | 33.60911 | -115.22541 | 32986 ft | 465 kts | 88° |
| 2026-05-07 07:35 | 33.60702 | -115.14794 | 32977 ft | 465 kts | 88° |
| 2026-05-07 07:36 | 33.60492 | -115.07105 | 32974 ft | 463 kts | 88° |
| 2026-05-07 07:36 | 33.60276 | -114.99394 | 32974 ft | 462 kts | 88° |
| 2026-05-07 07:37 | 33.60057 | -114.91694 | 32973 ft | 461 kts | 88° |
| 2026-05-07 07:37 | 33.59837 | -114.84009 | 32980 ft | 460 kts | 88° |
| 2026-05-07 07:38 | 33.59601 | -114.76341 | 32975 ft | 460 kts | 90° |
| 2026-05-07 07:38 | 33.58984 | -114.68673 | 32988 ft | 462 kts | 92° |
| 2026-05-07 07:39 | 33.58277 | -114.61012 | 32990 ft | 462 kts | 92° |
| 2026-05-07 07:39 | 33.57572 | -114.53359 | 32981 ft | 462 kts | 92° |
| 2026-05-07 07:40 | 33.56877 | -114.45687 | 32985 ft | 462 kts | 92° |
| 2026-05-07 07:40 | 33.56181 | -114.38035 | 32980 ft | 462 kts | 92° |
| 2026-05-07 07:41 | 33.55485 | -114.30435 | 32999 ft | 461 kts | 92° |
| 2026-05-07 07:41 | 33.54783 | -114.22791 | 32981 ft | 461 kts | 92° |
| 2026-05-07 07:42 | 33.54073 | -114.15151 | 32997 ft | 461 kts | 93° |
| 2026-05-07 07:42 | 33.53359 | -114.07511 | 33000 ft | 461 kts | 93° |
| 2026-05-07 07:43 | 33.52763 | -114.01172 | 32999 ft | 460 kts | 93° |
| 2026-05-07 07:43 | 33.52041 | -113.93534 | 32993 ft | 461 kts | 93° |
| 2026-05-07 07:44 | 33.51316 | -113.85893 | 33002 ft | 462 kts | 93° |
| 2026-05-07 07:44 | 33.50590 | -113.78231 | 33000 ft | 464 kts | 94° |
| 2026-05-07 07:45 | 33.49858 | -113.70539 | 33000 ft | 465 kts | 94° |
| 2026-05-07 07:45 | 33.49118 | -113.62828 | 33000 ft | 466 kts | 94° |
| 2026-05-07 07:46 | 33.48375 | -113.55147 | 33001 ft | 467 kts | 94° |
| 2026-05-07 07:46 | 33.47624 | -113.47395 | 32996 ft | 469 kts | 94° |
| 2026-05-07 07:47 | 33.46865 | -113.39629 | 33006 ft | 469 kts | 94° |
| 2026-05-07 07:47 | 33.46280 | -113.31850 | 33012 ft | 469 kts | 89° |
| 2026-05-07 07:48 | 33.46172 | -113.24017 | 33015 ft | 470 kts | 89° |
| 2026-05-07 07:48 | 33.46062 | -113.16167 | 33008 ft | 472 kts | 89° |
| 2026-05-07 07:49 | 33.45921 | -113.08339 | 33011 ft | 473 kts | 90° |
| 2026-05-07 07:49 | 33.45769 | -113.00450 | 33010 ft | 474 kts | 90° |
| 2026-05-07 07:50 | 33.45609 | -112.92547 | 33010 ft | 475 kts | 90° |
| 2026-05-07 07:50 | 33.45447 | -112.84655 | 33015 ft | 474 kts | 90° |
| 2026-05-07 07:51 | 33.45278 | -112.76734 | 33017 ft | 475 kts | 90° |
| 2026-05-07 07:51 | 33.45101 | -112.68825 | 33017 ft | 475 kts | 90° |
| 2026-05-07 07:52 | 33.44924 | -112.60923 | 33022 ft | 475 kts | 90° |
| 2026-05-07 07:52 | 33.44742 | -112.53019 | 33016 ft | 475 kts | 90° |
| 2026-05-07 07:53 | 33.44553 | -112.45122 | 33012 ft | 474 kts | 90° |
| 2026-05-07 07:53 | 33.44361 | -112.37241 | 32999 ft | 473 kts | 90° |
| 2026-05-07 07:54 | 33.44163 | -112.29366 | 33001 ft | 472 kts | 90° |
| 2026-05-07 07:54 | 33.43961 | -112.21512 | 33003 ft | 472 kts | 90° |
| 2026-05-07 07:55 | 33.43755 | -112.13716 | 33010 ft | 471 kts | 90° |
| 2026-05-07 07:55 | 33.43544 | -112.05886 | 33008 ft | 471 kts | 90° |
| 2026-05-07 07:56 | 33.43332 | -111.98049 | 33010 ft | 470 kts | 90° |
| 2026-05-07 07:56 | 33.43531 | -111.90215 | 33018 ft | 472 kts | 86° |
| 2026-05-07 07:57 | 33.43883 | -111.82351 | 33030 ft | 475 kts | 86° |
| 2026-05-07 07:57 | 33.44223 | -111.74408 | 33030 ft | 479 kts | 86° |
| 2026-05-07 07:58 | 33.44545 | -111.66425 | 33031 ft | 482 kts | 87° |
| 2026-05-07 07:58 | 33.44859 | -111.58390 | 33026 ft | 485 kts | 87° |
| 2026-05-07 07:59 | 33.45168 | -111.50299 | 33035 ft | 487 kts | 87° |
| 2026-05-07 07:59 | 33.45479 | -111.42178 | 33034 ft | 489 kts | 88° |
| 2026-05-07 08:00 | 33.45779 | -111.34034 | 33047 ft | 490 kts | 88° |
| 2026-05-07 08:00 | 33.46078 | -111.25874 | 33037 ft | 492 kts | 88° |
| 2026-05-07 08:01 | 33.46371 | -111.17669 | 33051 ft | 494 kts | 88° |
| 2026-05-07 08:01 | 33.46665 | -111.09407 | 33056 ft | 497 kts | 89° |
| 2026-05-07 08:02 | 33.46953 | -111.01106 | 33069 ft | 501 kts | 89° |
| 2026-05-07 08:02 | 33.47234 | -110.92756 | 33130 ft | 503 kts | 89° |
| 2026-05-07 08:03 | 33.47513 | -110.84349 | 33147 ft | 507 kts | 89° |
| 2026-05-07 08:03 | 33.47783 | -110.75948 | 33152 ft | 510 kts | 89° |
| 2026-05-07 08:04 | 33.48054 | -110.67437 | 33161 ft | 512 kts | 90° |
| 2026-05-07 08:04 | 33.48324 | -110.58896 | 33170 ft | 513 kts | 90° |
| 2026-05-07 08:05 | 33.48584 | -110.50358 | 33188 ft | 513 kts | 90° |
| 2026-05-07 08:05 | 33.48839 | -110.41799 | 33186 ft | 515 kts | 90° |
| 2026-05-07 08:06 | 33.49088 | -110.33227 | 33180 ft | 515 kts | 90° |
| 2026-05-07 08:06 | 33.49333 | -110.24649 | 33181 ft | 515 kts | 90° |
| 2026-05-07 08:07 | 33.49571 | -110.16070 | 33172 ft | 515 kts | 90° |
| 2026-05-07 08:07 | 33.49802 | -110.07504 | 33176 ft | 515 kts | 90° |
| 2026-05-07 08:08 | 33.50487 | -109.98966 | 33186 ft | 516 kts | 81° |
| 2026-05-07 08:08 | 33.52385 | -109.90670 | 33195 ft | 518 kts | 73° |
| 2026-05-07 08:09 | 33.54655 | -109.82449 | 33199 ft | 521 kts | 73° |
| 2026-05-07 08:09 | 33.56913 | -109.74174 | 33207 ft | 524 kts | 73° |
| 2026-05-07 08:10 | 33.59144 | -109.65841 | 33217 ft | 526 kts | 73° |
| 2026-05-07 08:10 | 33.61364 | -109.57472 | 33210 ft | 527 kts | 73° |
| 2026-05-07 08:11 | 33.63578 | -109.49084 | 33227 ft | 528 kts | 73° |
| 2026-05-07 08:11 | 33.65800 | -109.40670 | 33228 ft | 530 kts | 73° |
| 2026-05-07 08:12 | 33.68026 | -109.32213 | 33227 ft | 532 kts | 74° |
| 2026-05-07 08:12 | 33.70249 | -109.23739 | 33236 ft | 534 kts | 74° |
| 2026-05-07 08:13 | 33.72476 | -109.15214 | 33232 ft | 536 kts | 74° |
| 2026-05-07 08:13 | 33.74705 | -109.06651 | 33248 ft | 539 kts | 74° |
| 2026-05-07 08:14 | 33.76945 | -108.98026 | 33261 ft | 543 kts | 74° |
| 2026-05-07 08:14 | 33.79200 | -108.89331 | 33242 ft | 547 kts | 75° |
| 2026-05-07 08:15 | 33.81464 | -108.80570 | 33248 ft | 550 kts | 75° |
| 2026-05-07 08:15 | 33.83727 | -108.71760 | 33249 ft | 553 kts | 75° |
| 2026-05-07 08:16 | 33.85993 | -108.62912 | 33248 ft | 555 kts | 75° |
| 2026-05-07 08:16 | 33.88265 | -108.54017 | 33241 ft | 556 kts | 75° |
| 2026-05-07 08:17 | 33.90540 | -108.45101 | 33242 ft | 558 kts | 75° |
| 2026-05-07 08:17 | 33.92811 | -108.36161 | 33244 ft | 559 kts | 75° |
| 2026-05-07 08:18 | 33.95076 | -108.27201 | 33244 ft | 560 kts | 75° |
| 2026-05-07 08:18 | 33.97341 | -108.18222 | 33237 ft | 560 kts | 75° |
| 2026-05-07 08:19 | 33.99602 | -108.09240 | 33233 ft | 561 kts | 75° |
| 2026-05-07 08:19 | 34.01851 | -108.00251 | 33227 ft | 560 kts | 75° |
| 2026-05-07 08:20 | 34.04089 | -107.91260 | 33224 ft | 560 kts | 75° |
| 2026-05-07 08:20 | 34.06327 | -107.82283 | 33238 ft | 559 kts | 75° |
| 2026-05-07 08:21 | 34.08555 | -107.73294 | 33225 ft | 558 kts | 75° |
| 2026-05-07 08:21 | 34.10763 | -107.64323 | 33228 ft | 558 kts | 75° |
| 2026-05-07 08:22 | 34.12969 | -107.55373 | 33234 ft | 556 kts | 75° |
| 2026-05-07 08:22 | 34.15169 | -107.46429 | 33234 ft | 556 kts | 75° |
| 2026-05-07 08:23 | 34.17353 | -107.37482 | 33221 ft | 555 kts | 75° |
| 2026-05-07 08:23 | 34.19534 | -107.28548 | 33227 ft | 554 kts | 75° |
| 2026-05-07 08:24 | 34.21695 | -107.19633 | 33218 ft | 552 kts | 75° |
| 2026-05-07 08:24 | 34.23849 | -107.10728 | 33217 ft | 552 kts | 75° |
| 2026-05-07 08:25 | 34.25994 | -107.01820 | 33226 ft | 552 kts | 74° |
| 2026-05-07 08:25 | 34.28136 | -106.92898 | 33219 ft | 553 kts | 75° |
| 2026-05-07 08:26 | 34.30988 | -106.80972 | 33224 ft | 556 kts | 74° |
| 2026-05-07 08:26 | 34.33132 | -106.71974 | 33222 ft | 558 kts | 75° |
| 2026-05-07 08:27 | 34.35282 | -106.62919 | 33221 ft | 561 kts | 74° |
| 2026-05-07 08:27 | 34.37429 | -106.53844 | 33218 ft | 564 kts | 75° |
| 2026-05-07 08:28 | 34.39585 | -106.44687 | 33236 ft | 566 kts | 75° |
| 2026-05-07 08:28 | 34.41743 | -106.35500 | 33233 ft | 569 kts | 75° |
| 2026-05-07 08:29 | 34.43902 | -106.26257 | 33241 ft | 571 kts | 75° |
| 2026-05-07 08:29 | 34.46059 | -106.17004 | 33242 ft | 571 kts | 75° |
| 2026-05-07 08:30 | 34.48214 | -106.07729 | 33249 ft | 571 kts | 75° |
| 2026-05-07 08:30 | 34.50386 | -105.98473 | 33251 ft | 570 kts | 73° |
| 2026-05-07 08:31 | 34.52878 | -105.89336 | 33280 ft | 571 kts | 71° |
| 2026-05-07 08:31 | 34.55454 | -105.80290 | 33277 ft | 571 kts | 71° |
| 2026-05-07 08:32 | 34.58021 | -105.71173 | 33280 ft | 571 kts | 71° |
| 2026-05-07 08:32 | 34.60552 | -105.62048 | 33280 ft | 570 kts | 71° |
| 2026-05-07 08:33 | 34.63058 | -105.52928 | 33278 ft | 569 kts | 71° |
| 2026-05-07 08:33 | 34.65547 | -105.43835 | 33274 ft | 566 kts | 71° |
| 2026-05-07 08:34 | 34.68021 | -105.34780 | 33277 ft | 564 kts | 71° |
| 2026-05-07 08:34 | 34.70486 | -105.25739 | 33268 ft | 562 kts | 71° |
| 2026-05-07 08:35 | 34.72931 | -105.16747 | 33274 ft | 560 kts | 71° |
| 2026-05-07 08:35 | 34.75371 | -105.07745 | 33271 ft | 560 kts | 71° |
| 2026-05-07 08:36 | 34.77801 | -104.98745 | 33263 ft | 560 kts | 71° |
| 2026-05-07 08:36 | 34.80227 | -104.89717 | 33262 ft | 561 kts | 71° |
| 2026-05-07 08:37 | 34.82650 | -104.80681 | 33262 ft | 563 kts | 71° |
| 2026-05-07 08:37 | 34.85072 | -104.71611 | 33261 ft | 564 kts | 71° |
| 2026-05-07 08:38 | 34.87496 | -104.62514 | 33269 ft | 566 kts | 71° |
| 2026-05-07 08:38 | 34.89920 | -104.53386 | 33252 ft | 567 kts | 71° |
| 2026-05-07 08:39 | 34.92339 | -104.44240 | 33266 ft | 568 kts | 71° |
| 2026-05-07 08:39 | 34.94754 | -104.35082 | 33249 ft | 567 kts | 72° |
| 2026-05-07 08:40 | 34.97138 | -104.26001 | 33250 ft | 566 kts | 72° |
| 2026-05-07 08:40 | 34.99529 | -104.16864 | 33249 ft | 565 kts | 72° |
| 2026-05-07 08:41 | 35.01909 | -104.07740 | 33246 ft | 564 kts | 72° |
| 2026-05-07 08:41 | 35.04281 | -103.98619 | 33248 ft | 563 kts | 72° |
| 2026-05-07 08:42 | 35.06646 | -103.89492 | 33243 ft | 565 kts | 72° |
| 2026-05-07 08:42 | 35.09014 | -103.80332 | 33249 ft | 567 kts | 72° |
| 2026-05-07 08:43 | 35.11380 | -103.71132 | 33247 ft | 569 kts | 72° |
| 2026-05-07 08:43 | 35.13743 | -103.61907 | 33251 ft | 570 kts | 72° |
| 2026-05-07 08:44 | 35.16107 | -103.52663 | 33249 ft | 570 kts | 72° |
| 2026-05-07 08:44 | 35.18460 | -103.43419 | 33248 ft | 570 kts | 72° |
| 2026-05-07 08:45 | 35.20805 | -103.34167 | 33248 ft | 570 kts | 72° |
| 2026-05-07 08:45 | 35.23147 | -103.24911 | 33242 ft | 570 kts | 72° |
| 2026-05-07 08:46 | 35.25479 | -103.15653 | 33249 ft | 569 kts | 72° |
| 2026-05-07 08:46 | 35.27800 | -103.06398 | 33242 ft | 569 kts | 73° |
| 2026-05-07 08:47 | 35.30119 | -102.97120 | 33237 ft | 571 kts | 73° |
| 2026-05-07 08:47 | 35.32437 | -102.87812 | 33244 ft | 572 kts | 73° |
| 2026-05-07 08:48 | 35.34759 | -102.78464 | 33241 ft | 575 kts | 73° |
| 2026-05-07 08:48 | 35.37080 | -102.69075 | 33238 ft | 577 kts | 73° |
| 2026-05-07 08:49 | 35.39404 | -102.59649 | 33240 ft | 579 kts | 73° |
| 2026-05-07 08:49 | 35.41728 | -102.50183 | 33240 ft | 580 kts | 73° |
| 2026-05-07 08:50 | 35.44045 | -102.40700 | 33233 ft | 581 kts | 73° |
| 2026-05-07 08:50 | 35.46342 | -102.31271 | 33226 ft | 581 kts | 73° |
| 2026-05-07 08:51 | 35.48652 | -102.21765 | 33230 ft | 581 kts | 73° |
| 2026-05-07 08:51 | 35.50950 | -102.12268 | 33224 ft | 581 kts | 73° |
| 2026-05-07 08:52 | 35.53238 | -102.02761 | 33224 ft | 581 kts | 73° |
| 2026-05-07 08:52 | 35.55524 | -101.93233 | 33221 ft | 582 kts | 73° |
| 2026-05-07 08:53 | 35.57804 | -101.83694 | 33234 ft | 582 kts | 73° |
| 2026-05-07 08:53 | 35.60080 | -101.74133 | 33229 ft | 583 kts | 74° |
| 2026-05-07 08:54 | 35.62351 | -101.64556 | 33231 ft | 584 kts | 74° |
| 2026-05-07 08:54 | 35.64618 | -101.54963 | 33237 ft | 585 kts | 74° |
| 2026-05-07 08:55 | 35.66878 | -101.45359 | 33238 ft | 586 kts | 74° |
| 2026-05-07 08:55 | 35.69139 | -101.35720 | 33230 ft | 587 kts | 74° |
| 2026-05-07 08:56 | 35.71392 | -101.26069 | 33231 ft | 588 kts | 74° |
| 2026-05-07 08:56 | 35.73645 | -101.16381 | 33233 ft | 589 kts | 75° |
| 2026-05-07 08:57 | 35.75900 | -101.06648 | 33233 ft | 591 kts | 75° |
| 2026-05-07 08:57 | 35.78147 | -100.96895 | 33233 ft | 593 kts | 75° |
| 2026-05-07 08:58 | 35.80397 | -100.87091 | 33229 ft | 595 kts | 75° |
| 2026-05-07 08:58 | 35.82635 | -100.77320 | 33236 ft | 597 kts | 75° |
| 2026-05-07 08:59 | 35.84885 | -100.67446 | 33220 ft | 600 kts | 75° |
| 2026-05-07 08:59 | 35.87129 | -100.57552 | 33222 ft | 601 kts | 75° |
| 2026-05-07 09:00 | 35.89378 | -100.47603 | 33217 ft | 603 kts | 75° |
| 2026-05-07 09:00 | 35.91621 | -100.37623 | 33211 ft | 604 kts | 76° |
| 2026-05-07 09:01 | 35.93865 | -100.27622 | 33217 ft | 605 kts | 76° |
| 2026-05-07 09:01 | 35.96098 | -100.17601 | 33215 ft | 606 kts | 76° |
| 2026-05-07 09:02 | 35.98327 | -100.07567 | 33209 ft | 606 kts | 76° |
| 2026-05-07 09:02 | 36.00787 | -99.97597 | 33207 ft | 606 kts | 68° |
| 2026-05-07 09:03 | 36.04218 | -99.88110 | 33218 ft | 605 kts | 64° |
| 2026-05-07 09:03 | 36.07770 | -99.78694 | 33210 ft | 604 kts | 64° |
| 2026-05-07 09:04 | 36.11270 | -99.69239 | 33216 ft | 604 kts | 64° |
| 2026-05-07 09:04 | 36.14714 | -99.59773 | 33212 ft | 603 kts | 65° |
| 2026-05-07 09:05 | 36.18134 | -99.50308 | 33212 ft | 602 kts | 65° |
| 2026-05-07 09:05 | 36.21542 | -99.40848 | 33217 ft | 601 kts | 65° |
| 2026-05-07 09:06 | 36.24935 | -99.31423 | 33229 ft | 595 kts | 64° |
| 2026-05-07 09:06 | 36.26598 | -99.26795 | 33216 ft | 581 kts | 64° |
| 2026-05-07 09:06 | 36.28224 | -99.22268 | 33195 ft | 570 kts | 64° |
| 2026-05-07 09:07 | 36.31441 | -99.13302 | 33210 ft | 573 kts | 64° |
| 2026-05-07 09:07 | 36.34700 | -99.04179 | 33209 ft | 582 kts | 64° |
| 2026-05-07 09:08 | 36.37962 | -98.95012 | 33194 ft | 581 kts | 64° |
| 2026-05-07 09:08 | 36.41215 | -98.85838 | 33191 ft | 580 kts | 64° |
| 2026-05-07 09:09 | 36.44462 | -98.76664 | 33189 ft | 581 kts | 64° |
| 2026-05-07 09:09 | 36.47707 | -98.67462 | 33192 ft | 582 kts | 64° |
| 2026-05-07 09:10 | 36.50939 | -98.58288 | 33171 ft | 584 kts | 64° |
| 2026-05-07 09:10 | 36.54215 | -98.48946 | 33172 ft | 587 kts | 64° |
| 2026-05-07 09:11 | 36.56926 | -98.41188 | 33166 ft | 589 kts | 64° |
| 2026-05-07 09:11 | 36.60724 | -98.30295 | 33171 ft | 592 kts | 64° |
| 2026-05-07 09:12 | 36.63993 | -98.20893 | 33151 ft | 593 kts | 64° |
| 2026-05-07 09:12 | 36.67258 | -98.11462 | 33151 ft | 592 kts | 65° |
| 2026-05-07 09:13 | 36.69984 | -98.03575 | 33150 ft | 592 kts | 65° |
| 2026-05-07 09:13 | 36.73226 | -97.94156 | 33137 ft | 591 kts | 65° |
| 2026-05-07 09:14 | 36.76463 | -97.84727 | 33172 ft | 591 kts | 65° |
| 2026-05-07 09:14 | 36.79690 | -97.75298 | 33169 ft | 591 kts | 65° |
| 2026-05-07 09:15 | 36.82901 | -97.65876 | 33177 ft | 590 kts | 65° |
| 2026-05-07 09:15 | 36.86097 | -97.56472 | 33170 ft | 587 kts | 65° |
| 2026-05-07 09:16 | 36.89284 | -97.47095 | 33167 ft | 585 kts | 65° |
| 2026-05-07 09:16 | 36.92438 | -97.37754 | 33164 ft | 582 kts | 65° |
| 2026-05-07 09:17 | 36.95569 | -97.28443 | 33158 ft | 580 kts | 65° |
| 2026-05-07 09:17 | 36.98694 | -97.19147 | 33153 ft | 579 kts | 65° |
| 2026-05-07 09:18 | 37.01805 | -97.09860 | 33149 ft | 579 kts | 65° |
| 2026-05-07 09:18 | 37.04908 | -97.00569 | 33152 ft | 579 kts | 65° |
| 2026-05-07 09:19 | 37.08007 | -96.91249 | 33157 ft | 580 kts | 65° |
| 2026-05-07 09:19 | 37.11100 | -96.81910 | 33167 ft | 581 kts | 65° |
| 2026-05-07 09:20 | 37.14195 | -96.72563 | 33151 ft | 581 kts | 66° |
| 2026-05-07 09:20 | 37.17280 | -96.63193 | 33169 ft | 582 kts | 66° |
| 2026-05-07 09:21 | 37.20361 | -96.53810 | 33153 ft | 581 kts | 66° |
| 2026-05-07 09:21 | 37.23432 | -96.44433 | 33161 ft | 581 kts | 66° |
| 2026-05-07 09:22 | 37.26491 | -96.35050 | 33151 ft | 580 kts | 66° |
| 2026-05-07 09:22 | 37.29523 | -96.25738 | 33140 ft | 580 kts | 66° |
| 2026-05-07 09:23 | 37.32565 | -96.16355 | 33146 ft | 579 kts | 66° |
| 2026-05-07 09:23 | 37.35586 | -96.07004 | 33148 ft | 577 kts | 66° |
| 2026-05-07 09:24 | 37.38594 | -95.97664 | 33147 ft | 575 kts | 66° |
| 2026-05-07 09:24 | 37.41595 | -95.88329 | 33168 ft | 576 kts | 66° |
| 2026-05-07 09:25 | 37.44597 | -95.78966 | 33148 ft | 578 kts | 66° |
| 2026-05-07 09:25 | 37.47592 | -95.69562 | 33145 ft | 579 kts | 66° |
| 2026-05-07 09:26 | 37.50585 | -95.60140 | 33138 ft | 580 kts | 66° |
| 2026-05-07 09:26 | 37.53584 | -95.50685 | 33139 ft | 581 kts | 66° |
| 2026-05-07 09:27 | 37.56582 | -95.41204 | 33133 ft | 583 kts | 66° |
| 2026-05-07 09:28 | 37.61068 | -95.26926 | 33137 ft | 585 kts | 66° |
| 2026-05-07 09:28 | 37.64062 | -95.17359 | 33139 ft | 587 kts | 67° |
| 2026-05-07 09:29 | 37.67063 | -95.07755 | 33139 ft | 590 kts | 67° |
| 2026-05-07 09:29 | 37.70067 | -94.98110 | 33133 ft | 592 kts | 67° |
| 2026-05-07 09:30 | 37.73076 | -94.88394 | 33139 ft | 595 kts | 67° |
| 2026-05-07 09:30 | 37.76091 | -94.78633 | 33140 ft | 597 kts | 67° |
| 2026-05-07 09:31 | 37.79109 | -94.68824 | 33141 ft | 599 kts | 68° |
| 2026-05-07 09:31 | 37.82109 | -94.59051 | 33141 ft | 601 kts | 68° |
| 2026-05-07 09:32 | 37.85126 | -94.49179 | 33137 ft | 602 kts | 68° |
| 2026-05-07 09:32 | 37.88146 | -94.39278 | 33142 ft | 603 kts | 68° |
| 2026-05-07 09:33 | 37.91158 | -94.29361 | 33128 ft | 604 kts | 68° |
| 2026-05-07 09:33 | 37.94158 | -94.19426 | 33141 ft | 604 kts | 68° |
| 2026-05-07 09:34 | 37.97153 | -94.09479 | 33136 ft | 604 kts | 68° |
| 2026-05-07 09:34 | 38.00252 | -93.99594 | 33120 ft | 602 kts | 63° |
| 2026-05-07 09:35 | 38.04240 | -93.90301 | 33137 ft | 599 kts | 56° |
| 2026-05-07 09:35 | 38.08475 | -93.81214 | 33129 ft | 598 kts | 56° |
| 2026-05-07 09:36 | 38.12677 | -93.72082 | 33125 ft | 599 kts | 57° |
| 2026-05-07 09:36 | 38.16818 | -93.62912 | 33115 ft | 598 kts | 57° |
| 2026-05-07 09:37 | 38.20933 | -93.53735 | 33120 ft | 597 kts | 57° |
| 2026-05-07 09:37 | 38.25035 | -93.44570 | 33123 ft | 596 kts | 57° |
| 2026-05-07 09:38 | 38.29131 | -93.35403 | 33129 ft | 595 kts | 57° |
| 2026-05-07 09:38 | 38.33220 | -93.26238 | 33129 ft | 595 kts | 57° |
| 2026-05-07 09:39 | 38.37301 | -93.17070 | 33125 ft | 595 kts | 57° |
| 2026-05-07 09:39 | 38.41370 | -93.07887 | 33127 ft | 596 kts | 57° |
| 2026-05-07 09:40 | 38.45413 | -92.98731 | 33131 ft | 597 kts | 57° |
| 2026-05-07 09:40 | 38.49483 | -92.89493 | 33123 ft | 598 kts | 57° |
| 2026-05-07 09:41 | 38.53586 | -92.80167 | 33121 ft | 599 kts | 58° |
| 2026-05-07 09:41 | 38.57664 | -92.70855 | 33122 ft | 601 kts | 58° |
| 2026-05-07 09:42 | 38.61746 | -92.61512 | 33125 ft | 603 kts | 58° |
| 2026-05-07 09:42 | 38.65806 | -92.52192 | 33116 ft | 604 kts | 58° |
| 2026-05-07 09:43 | 38.69919 | -92.42723 | 33110 ft | 605 kts | 58° |
| 2026-05-07 09:43 | 38.73997 | -92.33302 | 33113 ft | 605 kts | 58° |
| 2026-05-07 09:44 | 38.78075 | -92.23861 | 33112 ft | 605 kts | 58° |
| 2026-05-07 09:44 | 38.82144 | -92.14410 | 33110 ft | 605 kts | 58° |
| 2026-05-07 09:45 | 38.86167 | -92.05025 | 33113 ft | 604 kts | 58° |
| 2026-05-07 09:45 | 38.90227 | -91.95532 | 33103 ft | 602 kts | 58° |
| 2026-05-07 09:46 | 38.94223 | -91.86171 | 33116 ft | 602 kts | 58° |
| 2026-05-07 09:46 | 38.98238 | -91.76714 | 33106 ft | 602 kts | 58° |
| 2026-05-07 09:47 | 39.02248 | -91.67267 | 33099 ft | 602 kts | 58° |
| 2026-05-07 09:47 | 39.06244 | -91.57816 | 33101 ft | 601 kts | 59° |
| 2026-05-07 09:48 | 39.10225 | -91.48363 | 33098 ft | 600 kts | 59° |
| 2026-05-07 09:48 | 39.14193 | -91.38921 | 33101 ft | 599 kts | 59° |
| 2026-05-07 09:49 | 39.18153 | -91.29465 | 33096 ft | 599 kts | 59° |
| 2026-05-07 09:49 | 39.22100 | -91.20014 | 33108 ft | 599 kts | 59° |
| 2026-05-07 09:50 | 39.26037 | -91.10550 | 33103 ft | 599 kts | 59° |
| 2026-05-07 09:50 | 39.29970 | -91.01071 | 33095 ft | 600 kts | 59° |
| 2026-05-07 09:51 | 39.33905 | -90.91565 | 33104 ft | 600 kts | 59° |
| 2026-05-07 09:51 | 39.37859 | -90.81991 | 33384 ft | 606 kts | 59° |
| 2026-05-07 09:51 | 39.39836 | -90.77180 | 33703 ft | 606 kts | 60° |
| 2026-05-07 09:52 | 39.41806 | -90.72377 | 34028 ft | 605 kts | 60° |
| 2026-05-07 09:52 | 39.43753 | -90.67623 | 34322 ft | 606 kts | 60° |
| 2026-05-07 09:52 | 39.45751 | -90.62744 | 34594 ft | 605 kts | 59° |
| 2026-05-07 09:52 | 39.47721 | -90.57928 | 34908 ft | 605 kts | 59° |
| 2026-05-07 09:53 | 39.49685 | -90.53120 | 35067 ft | 606 kts | 59° |
| 2026-05-07 09:53 | 39.53609 | -90.43495 | 35102 ft | 605 kts | 59° |
| 2026-05-07 09:54 | 39.57510 | -90.33876 | 35100 ft | 601 kts | 59° |
| 2026-05-07 09:54 | 39.61384 | -90.24295 | 35089 ft | 599 kts | 59° |
| 2026-05-07 09:55 | 39.65247 | -90.14724 | 35099 ft | 598 kts | 59° |
| 2026-05-07 09:55 | 39.69100 | -90.05145 | 35099 ft | 599 kts | 60° |
| 2026-05-07 09:56 | 39.72955 | -89.95532 | 35101 ft | 601 kts | 60° |
| 2026-05-07 09:56 | 39.76813 | -89.85875 | 35105 ft | 603 kts | 60° |
| 2026-05-07 09:57 | 39.80022 | -89.77817 | 35112 ft | 605 kts | 60° |
| 2026-05-07 09:57 | 39.84002 | -89.68195 | 35083 ft | 604 kts | 54° |
| 2026-05-07 09:58 | 39.88889 | -89.59371 | 35105 ft | 597 kts | 46° |
| 2026-05-07 09:58 | 39.94942 | -89.49575 | 35099 ft | 598 kts | 46° |
| 2026-05-07 09:59 | 39.99288 | -89.42469 | 35101 ft | 599 kts | 46° |
| 2026-05-07 09:59 | 40.04430 | -89.33915 | 35106 ft | 598 kts | 47° |
| 2026-05-07 10:00 | 40.09529 | -89.25373 | 35078 ft | 595 kts | 47° |
| 2026-05-07 10:00 | 40.14583 | -89.16899 | 35097 ft | 592 kts | 47° |
| 2026-05-07 10:01 | 40.19635 | -89.08412 | 35085 ft | 591 kts | 47° |
| 2026-05-07 10:01 | 40.24659 | -88.99938 | 35079 ft | 589 kts | 47° |
| 2026-05-07 10:02 | 40.29678 | -88.91455 | 35101 ft | 589 kts | 47° |
| 2026-05-07 10:02 | 40.34699 | -88.82961 | 35096 ft | 590 kts | 47° |
| 2026-05-07 10:03 | 40.39720 | -88.74436 | 35099 ft | 592 kts | 47° |
| 2026-05-07 10:03 | 40.44758 | -88.65859 | 35101 ft | 595 kts | 47° |
| 2026-05-07 10:04 | 40.49808 | -88.57233 | 35082 ft | 597 kts | 47° |
| 2026-05-07 10:04 | 40.54866 | -88.48567 | 35096 ft | 598 kts | 47° |
| 2026-05-07 10:05 | 40.59890 | -88.39933 | 35084 ft | 598 kts | 47° |
| 2026-05-07 10:05 | 40.64939 | -88.31234 | 35089 ft | 598 kts | 47° |
| 2026-05-07 10:06 | 40.69989 | -88.22517 | 35083 ft | 597 kts | 47° |
| 2026-05-07 10:06 | 40.75012 | -88.13811 | 35080 ft | 596 kts | 47° |
| 2026-05-07 10:07 | 40.80014 | -88.05126 | 35078 ft | 593 kts | 47° |
| 2026-05-07 10:07 | 40.84991 | -87.96458 | 35081 ft | 591 kts | 47° |
| 2026-05-07 10:08 | 40.89950 | -87.87793 | 35078 ft | 590 kts | 47° |
| 2026-05-07 10:08 | 40.94887 | -87.79145 | 35084 ft | 590 kts | 47° |
| 2026-05-07 10:09 | 40.99827 | -87.70465 | 35084 ft | 589 kts | 48° |
| 2026-05-07 10:09 | 41.04751 | -87.61798 | 35081 ft | 589 kts | 48° |
| 2026-05-07 10:10 | 41.09693 | -87.53068 | 35078 ft | 588 kts | 48° |
| 2026-05-07 10:10 | 41.14556 | -87.44451 | 35072 ft | 587 kts | 48° |
| 2026-05-07 10:11 | 41.19449 | -87.35758 | 35071 ft | 587 kts | 48° |
| 2026-05-07 10:11 | 41.24330 | -87.27066 | 35071 ft | 587 kts | 48° |
| 2026-05-07 10:12 | 41.29199 | -87.18368 | 35067 ft | 586 kts | 48° |
| 2026-05-07 10:12 | 41.34051 | -87.09669 | 35063 ft | 586 kts | 49° |
| 2026-05-07 10:13 | 41.38906 | -87.00946 | 35058 ft | 586 kts | 48° |
| 2026-05-07 10:13 | 41.43754 | -86.92209 | 35055 ft | 586 kts | 49° |
| 2026-05-07 10:14 | 41.48583 | -86.83476 | 35057 ft | 585 kts | 49° |
| 2026-05-07 10:14 | 41.53410 | -86.74738 | 35056 ft | 585 kts | 49° |
| 2026-05-07 10:15 | 41.58235 | -86.65974 | 35052 ft | 585 kts | 49° |
| 2026-05-07 10:15 | 41.63047 | -86.57202 | 35048 ft | 585 kts | 49° |
| 2026-05-07 10:16 | 41.67846 | -86.48421 | 35045 ft | 584 kts | 49° |
| 2026-05-07 10:16 | 41.72630 | -86.39654 | 35048 ft | 583 kts | 49° |
| 2026-05-07 10:17 | 41.76875 | -86.30341 | 35041 ft | 588 kts | 60° |
| 2026-05-07 10:17 | 41.79949 | -86.20179 | 35043 ft | 590 kts | 71° |
| 2026-05-07 10:18 | 41.82450 | -86.09715 | 35039 ft | 589 kts | 71° |
| 2026-05-07 10:18 | 41.84949 | -85.99258 | 35026 ft | 589 kts | 71° |
| 2026-05-07 10:19 | 41.87486 | -85.88826 | 35027 ft | 588 kts | 71° |
| 2026-05-07 10:19 | 41.90041 | -85.78408 | 35019 ft | 588 kts | 71° |
| 2026-05-07 10:20 | 41.92587 | -85.67955 | 35014 ft | 589 kts | 71° |
| 2026-05-07 10:20 | 41.95104 | -85.57567 | 35007 ft | 589 kts | 71° |
| 2026-05-07 10:21 | 41.97629 | -85.47084 | 35012 ft | 590 kts | 71° |
| 2026-05-07 10:21 | 42.00150 | -85.36558 | 35013 ft | 592 kts | 71° |
| 2026-05-07 10:22 | 42.02672 | -85.25997 | 35017 ft | 593 kts | 71° |
| 2026-05-07 10:22 | 42.05179 | -85.15452 | 35001 ft | 591 kts | 71° |
| 2026-05-07 10:23 | 42.07660 | -85.04952 | 34997 ft | 587 kts | 71° |
| 2026-05-07 10:23 | 42.10118 | -84.94502 | 34981 ft | 585 kts | 71° |
| 2026-05-07 10:24 | 42.12564 | -84.84065 | 34985 ft | 584 kts | 72° |
| 2026-05-07 10:24 | 42.14998 | -84.73630 | 34995 ft | 584 kts | 72° |
| 2026-05-07 10:25 | 42.17427 | -84.63164 | 34992 ft | 587 kts | 72° |
| 2026-05-07 10:25 | 42.19866 | -84.52615 | 34983 ft | 591 kts | 72° |
| 2026-05-07 10:26 | 42.22310 | -84.41996 | 34986 ft | 594 kts | 72° |
| 2026-05-07 10:26 | 42.24752 | -84.31321 | 34985 ft | 597 kts | 72° |
| 2026-05-07 10:27 | 42.27193 | -84.20581 | 34980 ft | 599 kts | 72° |
| 2026-05-07 10:27 | 42.29616 | -84.09892 | 34984 ft | 600 kts | 72° |
| 2026-05-07 10:28 | 42.32052 | -83.99097 | 34970 ft | 600 kts | 72° |
| 2026-05-07 10:28 | 42.34472 | -83.88325 | 34967 ft | 599 kts | 72° |
| 2026-05-07 10:29 | 42.36877 | -83.77545 | 34973 ft | 598 kts | 73° |
| 2026-05-07 10:29 | 42.39268 | -83.66782 | 34974 ft | 596 kts | 72° |
| 2026-05-07 10:30 | 42.43158 | -83.50843 | 34972 ft | 593 kts | 68° |
| 2026-05-07 10:30 | 42.46080 | -83.40409 | 34974 ft | 591 kts | 68° |
| 2026-05-07 10:31 | 42.48985 | -83.29989 | 34966 ft | 590 kts | 68° |
| 2026-05-07 10:31 | 42.51844 | -83.19571 | 34972 ft | 589 kts | 68° |
| 2026-05-07 10:32 | 42.54651 | -83.09219 | 34969 ft | 588 kts | 68° |
| 2026-05-07 10:32 | 42.57482 | -82.98738 | 34966 ft | 588 kts | 69° |
| 2026-05-07 10:33 | 42.60264 | -82.88395 | 34961 ft | 588 kts | 69° |
| 2026-05-07 10:33 | 42.63062 | -82.77965 | 34948 ft | 588 kts | 69° |
| 2026-05-07 10:34 | 42.65859 | -82.67500 | 34942 ft | 589 kts | 69° |
| 2026-05-07 10:34 | 42.68642 | -82.57035 | 34954 ft | 589 kts | 69° |
| 2026-05-07 10:35 | 42.71420 | -82.46535 | 34958 ft | 590 kts | 69° |
| 2026-05-07 10:35 | 42.74191 | -82.36027 | 34967 ft | 591 kts | 69° |
| 2026-05-07 10:36 | 42.76958 | -82.25492 | 34964 ft | 592 kts | 69° |
| 2026-05-07 10:36 | 42.79710 | -82.14927 | 34949 ft | 592 kts | 69° |
| 2026-05-07 10:37 | 42.82464 | -82.04364 | 34963 ft | 592 kts | 69° |
| 2026-05-07 10:37 | 42.85205 | -81.93799 | 34962 ft | 592 kts | 69° |
| 2026-05-07 10:38 | 42.87930 | -81.83223 | 34963 ft | 591 kts | 69° |
| 2026-05-07 10:38 | 42.90637 | -81.72657 | 34960 ft | 590 kts | 70° |
| 2026-05-07 10:39 | 42.93336 | -81.62105 | 34954 ft | 589 kts | 70° |
| 2026-05-07 10:39 | 42.96026 | -81.51544 | 34951 ft | 588 kts | 70° |
| 2026-05-07 10:40 | 42.98696 | -81.40993 | 34956 ft | 587 kts | 70° |
| 2026-05-07 10:40 | 43.01352 | -81.30453 | 34952 ft | 587 kts | 70° |
| 2026-05-07 10:41 | 43.03997 | -81.19920 | 34952 ft | 586 kts | 70° |
| 2026-05-07 10:41 | 43.06673 | -81.09391 | 34955 ft | 585 kts | 67° |
| 2026-05-07 10:42 | 43.09418 | -81.00961 | 34956 ft | 583 kts | 62° |
| 2026-05-07 10:42 | 43.12951 | -80.90974 | 34958 ft | 583 kts | 62° |
| 2026-05-07 10:43 | 43.16466 | -80.80980 | 34951 ft | 583 kts | 62° |
| 2026-05-07 10:43 | 43.19937 | -80.70933 | 34958 ft | 583 kts | 62° |
| 2026-05-07 10:44 | 43.23368 | -80.60872 | 34956 ft | 583 kts | 63° |
| 2026-05-07 10:44 | 43.26792 | -80.50805 | 34955 ft | 582 kts | 63° |
| 2026-05-07 10:45 | 43.30214 | -80.40731 | 34955 ft | 582 kts | 63° |
| 2026-05-07 10:45 | 43.33621 | -80.30667 | 34952 ft | 580 kts | 63° |
| 2026-05-07 10:46 | 43.37007 | -80.20620 | 34954 ft | 579 kts | 63° |
| 2026-05-07 10:46 | 43.40377 | -80.10586 | 34958 ft | 577 kts | 63° |
| 2026-05-07 10:47 | 43.43725 | -80.00590 | 34962 ft | 575 kts | 63° |
| 2026-05-07 10:47 | 43.47056 | -79.90596 | 34959 ft | 573 kts | 63° |
| 2026-05-07 10:48 | 43.50366 | -79.80629 | 34966 ft | 572 kts | 64° |
| 2026-05-07 10:48 | 43.53670 | -79.70652 | 34963 ft | 572 kts | 64° |
| 2026-05-07 10:49 | 43.56965 | -79.60663 | 34961 ft | 573 kts | 64° |
| 2026-05-07 10:49 | 43.60255 | -79.50642 | 34964 ft | 575 kts | 64° |
| 2026-05-07 10:50 | 43.63551 | -79.40574 | 34966 ft | 576 kts | 64° |
| 2026-05-07 10:50 | 43.67092 | -79.30635 | 34966 ft | 576 kts | 57° |
| 2026-05-07 10:51 | 43.71182 | -79.21104 | 34966 ft | 577 kts | 56° |
| 2026-05-07 10:51 | 43.75319 | -79.11591 | 34967 ft | 578 kts | 56° |
| 2026-05-07 10:52 | 43.79343 | -79.02189 | 34958 ft | 578 kts | 57° |
| 2026-05-07 10:52 | 43.83427 | -78.92511 | 34963 ft | 578 kts | 57° |
| 2026-05-07 10:53 | 43.87473 | -78.82886 | 34967 ft | 578 kts | 57° |
| 2026-05-07 10:53 | 43.91514 | -78.73247 | 34965 ft | 578 kts | 57° |
| 2026-05-07 10:54 | 43.95547 | -78.63614 | 34966 ft | 577 kts | 58° |
| 2026-05-07 10:54 | 43.99562 | -78.53979 | 34963 ft | 576 kts | 58° |
| 2026-05-07 10:55 | 44.03555 | -78.44364 | 34962 ft | 573 kts | 58° |
| 2026-05-07 10:55 | 44.07518 | -78.34791 | 34943 ft | 570 kts | 58° |
| 2026-05-07 10:56 | 44.11456 | -78.25249 | 34950 ft | 567 kts | 58° |
| 2026-05-07 10:56 | 44.15373 | -78.15728 | 34950 ft | 566 kts | 58° |
| 2026-05-07 10:57 | 44.19278 | -78.06208 | 34962 ft | 566 kts | 58° |
| 2026-05-07 10:57 | 44.23157 | -77.96715 | 34954 ft | 567 kts | 58° |
| 2026-05-07 10:58 | 44.27057 | -77.87132 | 34961 ft | 569 kts | 58° |
| 2026-05-07 10:58 | 44.30963 | -77.77511 | 34954 ft | 570 kts | 58° |
| 2026-05-07 10:59 | 44.34865 | -77.67866 | 34956 ft | 571 kts | 59° |
| 2026-05-07 10:59 | 44.38760 | -77.58201 | 34957 ft | 571 kts | 59° |
| 2026-05-07 11:00 | 44.42651 | -77.48514 | 34954 ft | 571 kts | 59° |
| 2026-05-07 11:00 | 44.46527 | -77.38835 | 34954 ft | 570 kts | 59° |
| 2026-05-07 11:01 | 44.50388 | -77.29153 | 34956 ft | 569 kts | 59° |
| 2026-05-07 11:01 | 44.54235 | -77.19476 | 34947 ft | 568 kts | 59° |
| 2026-05-07 11:02 | 44.58074 | -77.09794 | 34941 ft | 567 kts | 60° |
| 2026-05-07 11:02 | 44.61897 | -77.00115 | 34933 ft | 567 kts | 60° |
| 2026-05-07 11:03 | 44.65705 | -76.90427 | 34943 ft | 566 kts | 60° |
| 2026-05-07 11:03 | 44.69497 | -76.80746 | 34929 ft | 566 kts | 60° |
| 2026-05-07 11:04 | 44.73297 | -76.71031 | 34927 ft | 567 kts | 60° |
| 2026-05-07 11:04 | 44.77067 | -76.61351 | 34929 ft | 568 kts | 60° |
| 2026-05-07 11:05 | 44.80884 | -76.51519 | 34921 ft | 569 kts | 60° |
| 2026-05-07 11:05 | 44.84642 | -76.41793 | 34915 ft | 570 kts | 60° |
| 2026-05-07 11:06 | 44.88427 | -76.31966 | 34905 ft | 570 kts | 60° |
| 2026-05-07 11:06 | 44.92206 | -76.22132 | 34890 ft | 570 kts | 60° |
| 2026-05-07 11:07 | 44.96036 | -76.12349 | 34884 ft | 569 kts | 59° |
| 2026-05-07 11:07 | 44.99902 | -76.02609 | 34874 ft | 567 kts | 60° |
| 2026-05-07 11:08 | 45.03741 | -75.92878 | 34866 ft | 566 kts | 60° |
| 2026-05-07 11:08 | 45.07553 | -75.83130 | 34872 ft | 565 kts | 60° |
| 2026-05-07 11:09 | 45.11344 | -75.73391 | 34865 ft | 565 kts | 60° |
| 2026-05-07 11:09 | 45.15131 | -75.63657 | 34858 ft | 564 kts | 60° |
| 2026-05-07 11:10 | 45.18898 | -75.53921 | 34851 ft | 564 kts | 61° |
| 2026-05-07 11:10 | 45.22664 | -75.44159 | 34852 ft | 564 kts | 61° |
| 2026-05-07 11:11 | 45.26573 | -75.34530 | 34852 ft | 563 kts | 54° |
| 2026-05-07 11:11 | 45.31321 | -75.25725 | 34867 ft | 561 kts | 49° |
| 2026-05-07 11:12 | 45.36195 | -75.17052 | 34861 ft | 562 kts | 50° |
| 2026-05-07 11:12 | 45.40991 | -75.08287 | 34862 ft | 562 kts | 50° |
| 2026-05-07 11:13 | 45.45789 | -74.99507 | 34861 ft | 562 kts | 50° |
| 2026-05-07 11:13 | 45.50648 | -74.90769 | 34860 ft | 563 kts | 50° |
| 2026-05-07 11:14 | 45.55510 | -74.82017 | 34852 ft | 563 kts | 50° |
| 2026-05-07 11:14 | 45.60362 | -74.73218 | 34840 ft | 564 kts | 50° |
| 2026-05-07 11:15 | 45.65207 | -74.64413 | 34835 ft | 564 kts | 50° |
| 2026-05-07 11:15 | 45.70029 | -74.55591 | 34819 ft | 563 kts | 51° |
| 2026-05-07 11:16 | 45.74846 | -74.46764 | 34830 ft | 562 kts | 51° |
| 2026-05-07 11:16 | 45.79656 | -74.37933 | 34834 ft | 561 kts | 51° |
| 2026-05-07 11:17 | 45.84438 | -74.29111 | 34817 ft | 560 kts | 51° |
| 2026-05-07 11:17 | 45.89194 | -74.20275 | 34832 ft | 559 kts | 51° |
| 2026-05-07 11:18 | 45.93942 | -74.11425 | 34810 ft | 559 kts | 51° |
| 2026-05-07 11:18 | 45.98675 | -74.02586 | 34806 ft | 558 kts | 51° |
| 2026-05-07 11:19 | 46.03341 | -73.93653 | 34813 ft | 558 kts | 56° |
| 2026-05-07 11:19 | 46.07116 | -73.83906 | 34812 ft | 558 kts | 68° |
| 2026-05-07 11:20 | 46.10090 | -73.73657 | 34815 ft | 558 kts | 69° |
| 2026-05-07 11:20 | 46.13088 | -73.63351 | 34815 ft | 558 kts | 68° |
| 2026-05-07 11:21 | 46.16151 | -73.53068 | 34812 ft | 559 kts | 68° |
| 2026-05-07 11:21 | 46.19210 | -73.42762 | 34802 ft | 559 kts | 67° |
| 2026-05-07 11:22 | 46.22882 | -73.32887 | 34792 ft | 559 kts | 56° |
| 2026-05-07 11:22 | 46.27473 | -73.23843 | 34780 ft | 558 kts | 52° |
| 2026-05-07 11:23 | 46.32134 | -73.14883 | 34785 ft | 557 kts | 52° |
| 2026-05-07 11:23 | 46.36749 | -73.05882 | 34788 ft | 556 kts | 53° |
| 2026-05-07 11:24 | 46.41319 | -72.96854 | 34785 ft | 555 kts | 53° |
| 2026-05-07 11:24 | 46.45862 | -72.87817 | 34773 ft | 555 kts | 53° |
| 2026-05-07 11:25 | 46.50403 | -72.78769 | 34772 ft | 554 kts | 53° |
| 2026-05-07 11:25 | 46.54931 | -72.69720 | 34776 ft | 553 kts | 53° |
| 2026-05-07 11:26 | 46.58684 | -72.62192 | 34779 ft | 554 kts | 53° |
| 2026-05-07 11:26 | 46.63212 | -72.53090 | 34783 ft | 555 kts | 53° |
| 2026-05-07 11:27 | 46.67731 | -72.43984 | 34788 ft | 555 kts | 53° |
| 2026-05-07 11:27 | 46.72253 | -72.34845 | 34786 ft | 556 kts | 53° |
| 2026-05-07 11:28 | 46.76766 | -72.25687 | 34791 ft | 556 kts | 54° |
| 2026-05-07 11:28 | 46.81276 | -72.16505 | 34799 ft | 555 kts | 54° |
| 2026-05-07 11:29 | 46.85743 | -72.07382 | 34790 ft | 555 kts | 54° |
| 2026-05-07 11:29 | 46.90214 | -71.98210 | 34786 ft | 554 kts | 54° |
| 2026-05-07 11:30 | 46.94677 | -71.89024 | 34791 ft | 552 kts | 54° |
| 2026-05-07 11:30 | 46.99124 | -71.79855 | 34797 ft | 550 kts | 54° |
| 2026-05-07 11:31 | 47.03537 | -71.70729 | 34801 ft | 547 kts | 54° |
| 2026-05-07 11:31 | 47.07918 | -71.61624 | 34804 ft | 546 kts | 54° |
| 2026-05-07 11:32 | 47.14446 | -71.48004 | 34819 ft | 543 kts | 55° |
| 2026-05-07 11:33 | 47.18795 | -71.38906 | 34801 ft | 543 kts | 55° |
| 2026-05-07 11:33 | 47.23120 | -71.29820 | 34795 ft | 541 kts | 55° |
| 2026-05-07 11:34 | 47.27412 | -71.20779 | 34801 ft | 541 kts | 55° |
| 2026-05-07 11:34 | 47.31720 | -71.11666 | 34806 ft | 542 kts | 55° |
| 2026-05-07 11:35 | 47.36018 | -71.02548 | 34795 ft | 541 kts | 55° |
| 2026-05-07 11:35 | 47.40307 | -70.93417 | 34769 ft | 542 kts | 56° |
| 2026-05-07 11:36 | 47.44594 | -70.84263 | 34767 ft | 540 kts | 56° |
| 2026-05-07 11:36 | 47.48852 | -70.75132 | 34768 ft | 539 kts | 56° |
| 2026-05-07 11:37 | 47.53097 | -70.66005 | 34764 ft | 536 kts | 56° |
| 2026-05-07 11:37 | 47.57309 | -70.56922 | 34754 ft | 534 kts | 56° |
| 2026-05-07 11:38 | 47.61498 | -70.47854 | 34759 ft | 533 kts | 56° |
| 2026-05-07 11:38 | 47.65651 | -70.38836 | 34758 ft | 531 kts | 57° |
| 2026-05-07 11:39 | 47.69805 | -70.29790 | 34752 ft | 529 kts | 57° |
| 2026-05-07 11:39 | 47.73938 | -70.20754 | 34754 ft | 528 kts | 57° |
| 2026-05-07 11:40 | 47.78048 | -70.11742 | 34746 ft | 526 kts | 57° |
| 2026-05-07 11:40 | 47.82143 | -70.02727 | 34744 ft | 525 kts | 57° |
| 2026-05-07 11:41 | 47.86221 | -69.93720 | 34753 ft | 524 kts | 57° |
| 2026-05-07 11:41 | 47.90281 | -69.84738 | 34748 ft | 524 kts | 57° |
| 2026-05-07 11:42 | 47.94316 | -69.75762 | 34741 ft | 524 kts | 57° |
| 2026-05-07 11:42 | 47.98383 | -69.66697 | 34736 ft | 525 kts | 58° |
| 2026-05-07 11:43 | 48.02441 | -69.57619 | 34745 ft | 525 kts | 58° |
| 2026-05-07 11:43 | 48.06498 | -69.48512 | 34742 ft | 526 kts | 58° |
| 2026-05-07 11:44 | 48.10552 | -69.39382 | 34742 ft | 526 kts | 58° |
| 2026-05-07 11:44 | 48.14607 | -69.30337 | 34715 ft | 528 kts | 56° |
| 2026-05-07 11:45 | 48.19363 | -69.21940 | 34741 ft | 529 kts | 49° |
| 2026-05-07 11:45 | 48.24325 | -69.13793 | 34729 ft | 528 kts | 49° |
| 2026-05-07 11:46 | 48.29292 | -69.05578 | 34734 ft | 528 kts | 50° |
| 2026-05-07 11:46 | 48.34189 | -68.97362 | 34719 ft | 527 kts | 50° |
| 2026-05-07 11:47 | 48.39037 | -68.89172 | 34716 ft | 527 kts | 50° |
| 2026-05-07 11:47 | 48.43908 | -68.80907 | 34719 ft | 527 kts | 51° |
| 2026-05-07 11:48 | 48.48779 | -68.72623 | 34717 ft | 528 kts | 51° |
| 2026-05-07 11:48 | 48.53647 | -68.64328 | 34716 ft | 528 kts | 51° |
| 2026-05-07 11:49 | 48.58505 | -68.56017 | 34717 ft | 528 kts | 51° |
| 2026-05-07 11:49 | 48.63353 | -68.47707 | 34719 ft | 528 kts | 51° |
| 2026-05-07 11:50 | 48.68201 | -68.39366 | 34735 ft | 527 kts | 51° |
| 2026-05-07 11:50 | 48.73043 | -68.31008 | 34722 ft | 527 kts | 51° |
| 2026-05-07 11:51 | 48.77845 | -68.22689 | 34717 ft | 527 kts | 51° |
| 2026-05-07 11:51 | 48.82676 | -68.14298 | 34718 ft | 527 kts | 52° |
| 2026-05-07 11:52 | 48.87495 | -68.05896 | 34717 ft | 527 kts | 52° |
| 2026-05-07 11:52 | 48.92302 | -67.97488 | 34711 ft | 528 kts | 52° |
| 2026-05-07 11:53 | 48.97124 | -67.89029 | 34713 ft | 528 kts | 52° |
| 2026-05-07 11:53 | 49.01931 | -67.80570 | 34710 ft | 529 kts | 53° |
| 2026-05-07 11:54 | 49.06739 | -67.72082 | 34718 ft | 529 kts | 53° |
| 2026-05-07 11:54 | 49.11546 | -67.63569 | 34716 ft | 530 kts | 53° |
| 2026-05-07 11:55 | 49.16322 | -67.55084 | 34707 ft | 530 kts | 53° |
| 2026-05-07 11:55 | 49.21135 | -67.46501 | 34703 ft | 532 kts | 53° |
| 2026-05-07 11:56 | 49.25945 | -67.37906 | 34702 ft | 532 kts | 53° |
| 2026-05-07 11:56 | 49.30757 | -67.29266 | 34699 ft | 532 kts | 53° |
| 2026-05-07 11:57 | 49.35558 | -67.20617 | 34697 ft | 532 kts | 54° |
| 2026-05-07 11:57 | 49.40353 | -67.11964 | 34692 ft | 532 kts | 54° |
| 2026-05-07 11:58 | 49.45135 | -67.03289 | 34693 ft | 532 kts | 54° |
| 2026-05-07 11:58 | 49.49917 | -66.94597 | 34683 ft | 532 kts | 54° |
| 2026-05-07 11:59 | 49.54704 | -66.85868 | 34684 ft | 532 kts | 54° |
| 2026-05-07 11:59 | 49.59444 | -66.77191 | 34680 ft | 532 kts | 54° |
| 2026-05-07 12:00 | 49.64211 | -66.68433 | 34671 ft | 533 kts | 55° |
| 2026-05-07 12:00 | 49.68975 | -66.59655 | 34676 ft | 534 kts | 55° |
| 2026-05-07 12:01 | 49.73749 | -66.50832 | 34675 ft | 535 kts | 55° |
| 2026-05-07 12:01 | 49.78522 | -66.41977 | 34667 ft | 536 kts | 56° |
| 2026-05-07 12:02 | 49.83291 | -66.33098 | 34664 ft | 537 kts | 56° |
| 2026-05-07 12:02 | 49.88063 | -66.24183 | 34666 ft | 537 kts | 56° |
| 2026-05-07 12:03 | 49.92835 | -66.15244 | 34656 ft | 538 kts | 56° |
| 2026-05-07 12:03 | 49.97608 | -66.06270 | 34660 ft | 538 kts | 56° |
| 2026-05-07 12:04 | 50.02365 | -65.97287 | 34672 ft | 538 kts | 56° |
| 2026-05-07 12:04 | 50.07092 | -65.88339 | 34661 ft | 538 kts | 56° |
| 2026-05-07 12:05 | 50.11837 | -65.79324 | 34654 ft | 538 kts | 56° |
| 2026-05-07 12:05 | 50.16568 | -65.70305 | 34652 ft | 537 kts | 56° |
| 2026-05-07 12:06 | 50.21292 | -65.61255 | 34660 ft | 537 kts | 56° |
| 2026-05-07 12:06 | 50.25947 | -65.52337 | 34644 ft | 517 kts | 56° |
| 2026-05-07 12:07 | 50.30430 | -65.43725 | 34648 ft | 509 kts | 56° |
| 2026-05-07 12:07 | 50.34922 | -65.35016 | 34658 ft | 519 kts | 56° |
| 2026-05-07 12:08 | 50.39472 | -65.26180 | 34635 ft | 521 kts | 56° |
| 2026-05-07 12:08 | 50.44028 | -65.17319 | 34633 ft | 521 kts | 56° |
| 2026-05-07 12:09 | 50.47806 | -65.09949 | 34626 ft | 521 kts | 56° |
| 2026-05-07 12:09 | 50.52335 | -65.01079 | 34621 ft | 520 kts | 56° |
| 2026-05-07 12:10 | 50.56865 | -64.92182 | 34611 ft | 520 kts | 56° |
| 2026-05-07 12:10 | 50.61343 | -64.83351 | 34611 ft | 520 kts | 56° |
| 2026-05-07 12:11 | 50.65851 | -64.74433 | 34602 ft | 520 kts | 56° |
| 2026-05-07 12:11 | 50.70356 | -64.65489 | 34599 ft | 520 kts | 56° |
| 2026-05-07 12:12 | 50.74855 | -64.56529 | 34592 ft | 521 kts | 56° |
| 2026-05-07 12:12 | 50.79348 | -64.47546 | 34594 ft | 521 kts | 57° |
| 2026-05-07 12:13 | 50.83838 | -64.38549 | 34589 ft | 521 kts | 57° |
| 2026-05-07 12:13 | 50.88328 | -64.29514 | 34585 ft | 522 kts | 57° |
| 2026-05-07 12:14 | 50.92817 | -64.20445 | 34596 ft | 523 kts | 57° |
| 2026-05-07 12:14 | 50.97315 | -64.11338 | 34563 ft | 525 kts | 57° |
| 2026-05-07 12:15 | 51.01807 | -64.02201 | 34561 ft | 525 kts | 57° |
| 2026-05-07 12:15 | 51.06292 | -63.93044 | 34557 ft | 526 kts | 57° |
| 2026-05-07 12:16 | 51.10749 | -63.83910 | 34582 ft | 526 kts | 57° |
| 2026-05-07 12:16 | 51.15239 | -63.74689 | 34580 ft | 528 kts | 57° |
| 2026-05-07 12:17 | 51.19731 | -63.65415 | 34580 ft | 528 kts | 57° |
| 2026-05-07 12:17 | 51.24225 | -63.56115 | 34594 ft | 529 kts | 57° |
| 2026-05-07 12:18 | 51.28719 | -63.46785 | 34593 ft | 530 kts | 57° |
| 2026-05-07 12:18 | 51.33202 | -63.37431 | 34611 ft | 530 kts | 57° |
| 2026-05-07 12:19 | 51.37687 | -63.28040 | 34609 ft | 531 kts | 57° |
| 2026-05-07 12:19 | 51.42170 | -63.18620 | 34619 ft | 532 kts | 57° |
| 2026-05-07 12:20 | 51.46657 | -63.09169 | 34618 ft | 532 kts | 57° |
| 2026-05-07 12:20 | 51.51131 | -62.99705 | 34627 ft | 533 kts | 57° |
| 2026-05-07 12:21 | 51.55603 | -62.90206 | 34628 ft | 534 kts | 57° |
| 2026-05-07 12:21 | 51.60046 | -62.80743 | 34640 ft | 534 kts | 57° |
| 2026-05-07 12:22 | 51.64516 | -62.71180 | 34636 ft | 534 kts | 57° |
| 2026-05-07 12:22 | 51.68967 | -62.61618 | 34651 ft | 534 kts | 57° |
| 2026-05-07 12:23 | 51.73421 | -62.52014 | 34649 ft | 535 kts | 57° |
| 2026-05-07 12:23 | 51.77878 | -62.42374 | 34657 ft | 536 kts | 57° |
| 2026-05-07 12:24 | 51.82330 | -62.32716 | 34663 ft | 536 kts | 57° |
| 2026-05-07 12:24 | 51.86777 | -62.23027 | 34664 ft | 536 kts | 57° |
| 2026-05-07 12:25 | 51.91215 | -62.13309 | 34673 ft | 537 kts | 57° |
| 2026-05-07 12:25 | 51.95644 | -62.03582 | 34679 ft | 537 kts | 57° |
| 2026-05-07 12:26 | 52.00077 | -61.93809 | 34672 ft | 538 kts | 57° |
| 2026-05-07 12:26 | 52.04501 | -61.84019 | 34679 ft | 538 kts | 58° |
| 2026-05-07 12:27 | 52.08917 | -61.74212 | 34695 ft | 538 kts | 58° |
| 2026-05-07 12:27 | 52.13314 | -61.64404 | 34752 ft | 537 kts | 58° |
| 2026-05-07 12:28 | 52.17713 | -61.54555 | 34748 ft | 538 kts | 58° |
| 2026-05-07 12:28 | 52.22110 | -61.44675 | 34752 ft | 539 kts | 58° |
| 2026-05-07 12:29 | 52.26504 | -61.34766 | 34751 ft | 540 kts | 58° |
| 2026-05-07 12:29 | 52.30896 | -61.24823 | 34760 ft | 540 kts | 58° |
| 2026-05-07 12:30 | 52.35280 | -61.14843 | 34760 ft | 541 kts | 58° |
| 2026-05-07 12:30 | 52.39670 | -61.04837 | 34758 ft | 542 kts | 58° |
| 2026-05-07 12:31 | 52.44054 | -60.94795 | 34762 ft | 543 kts | 58° |
| 2026-05-07 12:31 | 52.48412 | -60.84774 | 34758 ft | 543 kts | 58° |
| 2026-05-07 12:32 | 52.52789 | -60.74660 | 34774 ft | 544 kts | 58° |
| 2026-05-07 12:32 | 52.57162 | -60.64519 | 34767 ft | 544 kts | 58° |
| 2026-05-07 12:33 | 52.63714 | -60.49254 | 34765 ft | 544 kts | 58° |
| 2026-05-07 12:33 | 52.68070 | -60.39052 | 34766 ft | 544 kts | 58° |
| 2026-05-07 12:34 | 52.72416 | -60.28836 | 34782 ft | 544 kts | 58° |
| 2026-05-07 12:34 | 52.76755 | -60.18598 | 34776 ft | 544 kts | 58° |
| 2026-05-07 12:35 | 52.81084 | -60.08343 | 34780 ft | 544 kts | 58° |
| 2026-05-07 12:35 | 52.85395 | -59.98074 | 34779 ft | 544 kts | 58° |
| 2026-05-07 12:36 | 52.89708 | -59.87764 | 34783 ft | 544 kts | 58° |
| 2026-05-07 12:36 | 52.94006 | -59.77457 | 34776 ft | 544 kts | 58° |
| 2026-05-07 12:37 | 52.98296 | -59.67125 | 34779 ft | 543 kts | 58° |
| 2026-05-07 12:37 | 53.02572 | -59.56787 | 34775 ft | 543 kts | 58° |
| 2026-05-07 12:38 | 53.06807 | -59.46495 | 34775 ft | 543 kts | 58° |
| 2026-05-07 12:38 | 53.11088 | -59.36054 | 34775 ft | 543 kts | 58° |
| 2026-05-07 12:39 | 53.15335 | -59.25662 | 34786 ft | 543 kts | 58° |
| 2026-05-07 12:39 | 53.19581 | -59.15224 | 34785 ft | 544 kts | 58° |
| 2026-05-07 12:40 | 53.23813 | -59.04775 | 34792 ft | 544 kts | 58° |
| 2026-05-07 12:40 | 53.28040 | -58.94293 | 34798 ft | 544 kts | 58° |
| 2026-05-07 12:41 | 53.32260 | -58.83789 | 34806 ft | 544 kts | 58° |
| 2026-05-07 12:41 | 53.36464 | -58.73280 | 34810 ft | 544 kts | 58° |
| 2026-05-07 12:42 | 53.40662 | -58.62744 | 34808 ft | 543 kts | 58° |
| 2026-05-07 12:42 | 53.44838 | -58.52213 | 34831 ft | 542 kts | 58° |
| 2026-05-07 12:43 | 53.49003 | -58.41673 | 34820 ft | 542 kts | 59° |
| 2026-05-07 12:43 | 53.53131 | -58.31185 | 34813 ft | 541 kts | 58° |
| 2026-05-07 12:44 | 53.57269 | -58.20618 | 34836 ft | 540 kts | 58° |
| 2026-05-07 12:44 | 53.61391 | -58.10046 | 34830 ft | 540 kts | 58° |
| 2026-05-07 12:45 | 53.65507 | -57.99455 | 34836 ft | 540 kts | 59° |
| 2026-05-07 12:45 | 53.69617 | -57.88831 | 34833 ft | 540 kts | 59° |
| 2026-05-07 12:46 | 53.73714 | -57.78189 | 34832 ft | 540 kts | 59° |
| 2026-05-07 12:46 | 53.77799 | -57.67537 | 34831 ft | 541 kts | 59° |
| 2026-05-07 12:47 | 53.81883 | -57.56850 | 34841 ft | 540 kts | 59° |
| 2026-05-07 12:47 | 53.85955 | -57.46151 | 34840 ft | 541 kts | 59° |
| 2026-05-07 12:48 | 53.90013 | -57.35422 | 34843 ft | 541 kts | 59° |
| 2026-05-07 12:48 | 53.94069 | -57.24660 | 34840 ft | 541 kts | 59° |
| 2026-05-07 12:49 | 53.98118 | -57.13876 | 34844 ft | 542 kts | 60° |
| 2026-05-07 12:49 | 54.02160 | -57.03061 | 34842 ft | 542 kts | 59° |
| 2026-05-07 12:50 | 54.05986 | -56.92035 | 34833 ft | 540 kts | 63° |
| 2026-05-07 12:50 | 54.09581 | -56.80801 | 34840 ft | 540 kts | 64° |
| 2026-05-07 12:51 | 54.13150 | -56.69541 | 34841 ft | 540 kts | 64° |
| 2026-05-07 12:51 | 54.16736 | -56.58282 | 34847 ft | 540 kts | 64° |
| 2026-05-07 12:52 | 54.20328 | -56.47004 | 34854 ft | 540 kts | 64° |
| 2026-05-07 12:52 | 54.23912 | -56.35709 | 34853 ft | 540 kts | 65° |
| 2026-05-07 12:53 | 54.27482 | -56.24397 | 34851 ft | 540 kts | 65° |
| 2026-05-07 12:53 | 54.31046 | -56.13068 | 34852 ft | 540 kts | 65° |
| 2026-05-07 12:54 | 54.34002 | -56.03632 | 34850 ft | 540 kts | 65° |
| 2026-05-07 12:54 | 54.37536 | -55.92265 | 34851 ft | 540 kts | 65° |
| 2026-05-07 12:55 | 54.41052 | -55.80901 | 34855 ft | 539 kts | 65° |
| 2026-05-07 12:55 | 54.44572 | -55.69506 | 34850 ft | 540 kts | 65° |
| 2026-05-07 12:56 | 54.48083 | -55.58082 | 34855 ft | 540 kts | 65° |
| 2026-05-07 12:56 | 54.51575 | -55.46646 | 34860 ft | 540 kts | 65° |
| 2026-05-07 12:57 | 54.55070 | -55.35152 | 34864 ft | 542 kts | 65° |
| 2026-05-07 12:57 | 54.58554 | -55.23634 | 34861 ft | 543 kts | 65° |
| 2026-05-07 12:58 | 54.62043 | -55.12052 | 34861 ft | 544 kts | 65° |
| 2026-05-07 12:58 | 54.65496 | -55.00526 | 34861 ft | 545 kts | 65° |
| 2026-05-07 12:59 | 54.68968 | -54.88888 | 34862 ft | 545 kts | 65° |
| 2026-05-07 12:59 | 54.72434 | -54.77211 | 34859 ft | 546 kts | 65° |
| 2026-05-07 13:00 | 54.75890 | -54.65502 | 34862 ft | 547 kts | 65° |
| 2026-05-07 13:00 | 54.79344 | -54.53755 | 34861 ft | 547 kts | 65° |
| 2026-05-07 13:01 | 54.82785 | -54.41983 | 34859 ft | 548 kts | 65° |
| 2026-05-07 13:01 | 54.86214 | -54.30191 | 34865 ft | 548 kts | 65° |
| 2026-05-07 13:02 | 54.89637 | -54.18361 | 34871 ft | 548 kts | 65° |
| 2026-05-07 13:02 | 54.93047 | -54.06516 | 34895 ft | 547 kts | 65° |
| 2026-05-07 13:03 | 54.96435 | -53.94694 | 34913 ft | 546 kts | 65° |
| 2026-05-07 13:03 | 54.99811 | -53.82853 | 34921 ft | 546 kts | 65° |
| 2026-05-07 13:04 | 55.03179 | -53.70985 | 34918 ft | 546 kts | 66° |
| 2026-05-07 13:04 | 55.06528 | -53.59107 | 34915 ft | 546 kts | 66° |
| 2026-05-07 13:05 | 55.09872 | -53.47197 | 34917 ft | 546 kts | 66° |
| 2026-05-07 13:05 | 55.13195 | -53.35298 | 34916 ft | 545 kts | 66° |
| 2026-05-07 13:06 | 55.16511 | -53.23360 | 34928 ft | 545 kts | 66° |
| 2026-05-07 13:06 | 55.19808 | -53.11435 | 34926 ft | 544 kts | 66° |
| 2026-05-07 13:07 | 55.23089 | -52.99494 | 34926 ft | 544 kts | 66° |
| 2026-05-07 13:07 | 55.26355 | -52.87561 | 34951 ft | 543 kts | 66° |
| 2026-05-07 13:08 | 55.29605 | -52.75624 | 34954 ft | 542 kts | 66° |
| 2026-05-07 13:08 | 55.32836 | -52.63688 | 34949 ft | 541 kts | 66° |
| 2026-05-07 13:09 | 55.36053 | -52.51733 | 34930 ft | 541 kts | 66° |
| 2026-05-07 13:09 | 55.39237 | -52.39846 | 34923 ft | 541 kts | 66° |
| 2026-05-07 13:10 | 55.42429 | -52.27869 | 34925 ft | 540 kts | 66° |
| 2026-05-07 13:10 | 55.45603 | -52.15893 | 34929 ft | 540 kts | 67° |
| 2026-05-07 13:11 | 55.48765 | -52.03897 | 34925 ft | 539 kts | 67° |
| 2026-05-07 13:11 | 55.51913 | -51.91901 | 34959 ft | 538 kts | 67° |
| 2026-05-07 13:12 | 55.55043 | -51.79913 | 34969 ft | 538 kts | 67° |
| 2026-05-07 13:12 | 55.58157 | -51.67906 | 34972 ft | 537 kts | 67° |
| 2026-05-07 13:13 | 55.61253 | -51.55907 | 35027 ft | 536 kts | 67° |
| 2026-05-07 13:13 | 55.64336 | -51.43890 | 35046 ft | 537 kts | 67° |
| 2026-05-07 13:14 | 55.67416 | -51.31834 | 35049 ft | 537 kts | 67° |
| 2026-05-07 13:14 | 55.70484 | -51.19753 | 35049 ft | 538 kts | 67° |
| 2026-05-07 13:15 | 55.73544 | -51.07634 | 35057 ft | 538 kts | 67° |
| 2026-05-07 13:15 | 55.76595 | -50.95494 | 35046 ft | 539 kts | 67° |
| 2026-05-07 13:16 | 55.79633 | -50.83330 | 35050 ft | 539 kts | 68° |
| 2026-05-07 13:16 | 55.82660 | -50.71140 | 35056 ft | 539 kts | 68° |
| 2026-05-07 13:17 | 55.85675 | -50.58941 | 35055 ft | 539 kts | 68° |
| 2026-05-07 13:17 | 55.88658 | -50.46807 | 35060 ft | 538 kts | 68° |
| 2026-05-07 13:18 | 55.91662 | -50.34506 | 35060 ft | 538 kts | 68° |
| 2026-05-07 13:18 | 55.94635 | -50.22267 | 35066 ft | 538 kts | 68° |
| 2026-05-07 13:19 | 55.97578 | -50.10081 | 35072 ft | 538 kts | 68° |
| 2026-05-07 13:19 | 56.00382 | -49.97700 | 35066 ft | 537 kts | 74° |
| 2026-05-07 13:20 | 56.02287 | -49.84857 | 35089 ft | 535 kts | 79° |
| 2026-05-07 13:20 | 56.04037 | -49.71923 | 35087 ft | 536 kts | 79° |
| 2026-05-07 13:21 | 56.05810 | -49.58971 | 35084 ft | 536 kts | 78° |
| 2026-05-07 13:21 | 56.07613 | -49.46014 | 35084 ft | 537 kts | 78° |
| 2026-05-07 13:22 | 56.09422 | -49.32956 | 35093 ft | 536 kts | 78° |
| 2026-05-07 13:22 | 56.11204 | -49.19989 | 35083 ft | 536 kts | 78° |
| 2026-05-07 13:23 | 56.12968 | -49.07029 | 35098 ft | 535 kts | 78° |
| 2026-05-07 13:23 | 56.14705 | -48.94142 | 35100 ft | 535 kts | 78° |
| 2026-05-07 13:24 | 56.16435 | -48.81173 | 35100 ft | 534 kts | 78° |
| 2026-05-07 13:24 | 56.18151 | -48.68205 | 35101 ft | 534 kts | 78° |
| 2026-05-07 13:25 | 56.19851 | -48.55235 | 35105 ft | 534 kts | 78° |
| 2026-05-07 13:25 | 56.21540 | -48.42240 | 35113 ft | 534 kts | 78° |
| 2026-05-07 13:26 | 56.23219 | -48.29259 | 35113 ft | 533 kts | 78° |
| 2026-05-07 13:26 | 56.24882 | -48.16280 | 35117 ft | 533 kts | 78° |
| 2026-05-07 13:27 | 56.26520 | -48.03302 | 35123 ft | 532 kts | 78° |
| 2026-05-07 13:27 | 56.28143 | -47.90329 | 35117 ft | 531 kts | 78° |
| 2026-05-07 13:28 | 56.29753 | -47.77367 | 35122 ft | 531 kts | 78° |
| 2026-05-07 13:28 | 56.31358 | -47.64394 | 35132 ft | 531 kts | 78° |
| 2026-05-07 13:29 | 56.32945 | -47.51381 | 35130 ft | 532 kts | 78° |
| 2026-05-07 13:29 | 56.34514 | -47.38349 | 35135 ft | 532 kts | 78° |
| 2026-05-07 13:30 | 56.36074 | -47.25299 | 35138 ft | 532 kts | 78° |
| 2026-05-07 13:30 | 56.37622 | -47.12259 | 35146 ft | 532 kts | 78° |
| 2026-05-07 13:31 | 56.39155 | -46.99208 | 35136 ft | 532 kts | 78° |
| 2026-05-07 13:31 | 56.40673 | -46.86151 | 35136 ft | 531 kts | 78° |
| 2026-05-07 13:32 | 56.42171 | -46.73107 | 35136 ft | 530 kts | 78° |
| 2026-05-07 13:32 | 56.43656 | -46.60075 | 35148 ft | 529 kts | 78° |
| 2026-05-07 13:33 | 56.45125 | -46.47068 | 35144 ft | 528 kts | 78° |
| 2026-05-07 13:33 | 56.46579 | -46.34067 | 35149 ft | 527 kts | 78° |
| 2026-05-07 13:34 | 56.48718 | -46.14670 | 35149 ft | 526 kts | 78° |
| 2026-05-07 13:35 | 56.50133 | -46.01672 | 35149 ft | 526 kts | 78° |
| 2026-05-07 13:35 | 56.51539 | -45.88665 | 35157 ft | 526 kts | 78° |
| 2026-05-07 13:36 | 56.52923 | -45.75647 | 35159 ft | 527 kts | 78° |
| 2026-05-07 13:36 | 56.54298 | -45.62599 | 35155 ft | 527 kts | 78° |
| 2026-05-07 13:37 | 56.55663 | -45.49534 | 35157 ft | 528 kts | 78° |
| 2026-05-07 13:37 | 56.57019 | -45.36446 | 35158 ft | 529 kts | 78° |
| 2026-05-07 13:38 | 56.58356 | -45.23328 | 35181 ft | 528 kts | 78° |
| 2026-05-07 13:38 | 56.59683 | -45.10207 | 35181 ft | 528 kts | 78° |
| 2026-05-07 13:39 | 56.60993 | -44.97088 | 35186 ft | 528 kts | 78° |
| 2026-05-07 13:39 | 56.62066 | -44.86196 | 35180 ft | 528 kts | 78° |
| 2026-05-07 13:40 | 56.63352 | -44.73063 | 35184 ft | 527 kts | 78° |
| 2026-05-07 13:40 | 56.64625 | -44.59951 | 35185 ft | 527 kts | 78° |
| 2026-05-07 13:41 | 56.65881 | -44.46820 | 35184 ft | 527 kts | 78° |
| 2026-05-07 13:41 | 56.67118 | -44.33687 | 35187 ft | 527 kts | 78° |
| 2026-05-07 13:42 | 56.68344 | -44.20554 | 35197 ft | 527 kts | 78° |
| 2026-05-07 13:42 | 56.69556 | -44.07444 | 35258 ft | 525 kts | 78° |
| 2026-05-07 13:43 | 56.70753 | -43.94304 | 35260 ft | 526 kts | 78° |
| 2026-05-07 13:43 | 56.71938 | -43.81160 | 35268 ft | 526 kts | 78° |
| 2026-05-07 13:44 | 56.73109 | -43.67996 | 35260 ft | 527 kts | 78° |
| 2026-05-07 13:44 | 56.74267 | -43.54812 | 35257 ft | 527 kts | 78° |
| 2026-05-07 13:45 | 56.75409 | -43.41630 | 35271 ft | 527 kts | 78° |
| 2026-05-07 13:45 | 56.76540 | -43.28422 | 35251 ft | 527 kts | 78° |
| 2026-05-07 13:46 | 56.77658 | -43.15211 | 35249 ft | 527 kts | 78° |
| 2026-05-07 13:46 | 56.78757 | -43.01998 | 35250 ft | 527 kts | 78° |
| 2026-05-07 13:47 | 56.79844 | -42.88777 | 35249 ft | 527 kts | 78° |
| 2026-05-07 13:47 | 56.80918 | -42.75577 | 35246 ft | 526 kts | 78° |
| 2026-05-07 13:48 | 56.81972 | -42.62383 | 35247 ft | 525 kts | 78° |
| 2026-05-07 13:48 | 56.83015 | -42.49191 | 35249 ft | 525 kts | 78° |
| 2026-05-07 13:49 | 56.84044 | -42.36004 | 35249 ft | 525 kts | 78° |
| 2026-05-07 13:49 | 56.85058 | -42.22799 | 35248 ft | 525 kts | 78° |
| 2026-05-07 13:50 | 56.86057 | -42.09566 | 35279 ft | 527 kts | 78° |
| 2026-05-07 13:50 | 56.86549 | -42.03013 | 35484 ft | 528 kts | 78° |
| 2026-05-07 13:50 | 56.87049 | -41.96301 | 35852 ft | 526 kts | 78° |
| 2026-05-07 13:50 | 56.87535 | -41.89701 | 36315 ft | 521 kts | 78° |
| 2026-05-07 13:51 | 56.88014 | -41.83136 | 36676 ft | 519 kts | 78° |
| 2026-05-07 13:51 | 56.88487 | -41.76620 | 37026 ft | 517 kts | 78° |
| 2026-05-07 13:51 | 56.88956 | -41.70120 | 37295 ft | 516 kts | 78° |
| 2026-05-07 13:52 | 56.89888 | -41.57088 | 37250 ft | 512 kts | 78° |
| 2026-05-07 13:52 | 56.90786 | -41.44259 | 37238 ft | 506 kts | 78° |
| 2026-05-07 13:53 | 56.91673 | -41.31490 | 37251 ft | 505 kts | 78° |
| 2026-05-07 13:53 | 56.92544 | -41.18726 | 37254 ft | 506 kts | 78° |
| 2026-05-07 13:54 | 56.93405 | -41.05907 | 37251 ft | 507 kts | 78° |
| 2026-05-07 13:54 | 56.94252 | -40.93089 | 37252 ft | 508 kts | 78° |
| 2026-05-07 13:55 | 56.95088 | -40.80234 | 37252 ft | 508 kts | 78° |
| 2026-05-07 13:55 | 56.95913 | -40.67359 | 37250 ft | 509 kts | 78° |
| 2026-05-07 13:56 | 56.96724 | -40.54457 | 37249 ft | 510 kts | 78° |
| 2026-05-07 13:56 | 56.97520 | -40.41565 | 37250 ft | 509 kts | 78° |
| 2026-05-07 13:57 | 56.98305 | -40.28645 | 37249 ft | 509 kts | 78° |
| 2026-05-07 13:57 | 56.99071 | -40.15838 | 37250 ft | 509 kts | 78° |
| 2026-05-07 13:58 | 56.99840 | -40.02938 | 37246 ft | 508 kts | 77° |
| 2026-05-07 13:58 | 57.01259 | -39.90392 | 37257 ft | 499 kts | 69° |
| 2026-05-07 13:59 | 57.03059 | -39.78081 | 37249 ft | 499 kts | 68° |
| 2026-05-07 13:59 | 57.04837 | -39.65765 | 37251 ft | 498 kts | 69° |
| 2026-05-07 14:00 | 57.06573 | -39.53446 | 37252 ft | 497 kts | 69° |
| 2026-05-07 14:00 | 57.08283 | -39.41108 | 37237 ft | 498 kts | 69° |
| 2026-05-07 14:01 | 57.09976 | -39.28759 | 37249 ft | 498 kts | 69° |
| 2026-05-07 14:01 | 57.11655 | -39.16409 | 37252 ft | 498 kts | 69° |
| 2026-05-07 14:02 | 57.13325 | -39.04049 | 37251 ft | 498 kts | 69° |
| 2026-05-07 14:02 | 57.14987 | -38.91668 | 37248 ft | 498 kts | 69° |
| 2026-05-07 14:03 | 57.16634 | -38.79281 | 37248 ft | 497 kts | 69° |
| 2026-05-07 14:03 | 57.18265 | -38.66914 | 37252 ft | 497 kts | 70° |
| 2026-05-07 14:04 | 57.19888 | -38.54520 | 37241 ft | 497 kts | 70° |
| 2026-05-07 14:04 | 57.21496 | -38.42126 | 37251 ft | 496 kts | 70° |
| 2026-05-07 14:05 | 57.23088 | -38.29719 | 37247 ft | 496 kts | 70° |
| 2026-05-07 14:05 | 57.24666 | -38.17324 | 37247 ft | 496 kts | 70° |
| 2026-05-07 14:06 | 57.26232 | -38.04904 | 37249 ft | 496 kts | 70° |
| 2026-05-07 14:06 | 57.27792 | -37.92509 | 37250 ft | 495 kts | 70° |
| 2026-05-07 14:07 | 57.29330 | -37.80110 | 37250 ft | 494 kts | 70° |
| 2026-05-07 14:07 | 57.30854 | -37.67709 | 37249 ft | 494 kts | 70° |
| 2026-05-07 14:08 | 57.32363 | -37.55389 | 37247 ft | 494 kts | 70° |
| 2026-05-07 14:08 | 57.33870 | -37.42960 | 37250 ft | 495 kts | 70° |
| 2026-05-07 14:09 | 57.35352 | -37.30536 | 37248 ft | 495 kts | 71° |
| 2026-05-07 14:09 | 57.36830 | -37.18086 | 37249 ft | 495 kts | 71° |
| 2026-05-07 14:10 | 57.38302 | -37.05608 | 37249 ft | 495 kts | 71° |
| 2026-05-07 14:10 | 57.39760 | -36.93118 | 37250 ft | 496 kts | 71° |
| 2026-05-07 14:11 | 57.41199 | -36.80621 | 37246 ft | 496 kts | 71° |
| 2026-05-07 14:11 | 57.42633 | -36.68097 | 37250 ft | 497 kts | 71° |
| 2026-05-07 14:12 | 57.44056 | -36.55555 | 37251 ft | 497 kts | 71° |
| 2026-05-07 14:12 | 57.45463 | -36.43000 | 37250 ft | 497 kts | 71° |
| 2026-05-07 14:13 | 57.46858 | -36.30418 | 37249 ft | 497 kts | 71° |
| 2026-05-07 14:13 | 57.48253 | -36.17816 | 37249 ft | 498 kts | 71° |
| 2026-05-07 14:14 | 57.49633 | -36.05193 | 37248 ft | 498 kts | 71° |
| 2026-05-07 14:14 | 57.50993 | -35.92567 | 37247 ft | 498 kts | 71° |
| 2026-05-07 14:15 | 57.52338 | -35.79943 | 37253 ft | 498 kts | 72° |
| 2026-05-07 14:15 | 57.53677 | -35.67300 | 37227 ft | 498 kts | 72° |
| 2026-05-07 14:16 | 57.55010 | -35.54623 | 37233 ft | 499 kts | 72° |
| 2026-05-07 14:16 | 57.56324 | -35.41950 | 37232 ft | 499 kts | 72° |
| 2026-05-07 14:17 | 57.57621 | -35.29255 | 37225 ft | 499 kts | 72° |
| 2026-05-07 14:17 | 57.58910 | -35.16545 | 37236 ft | 499 kts | 72° |
| 2026-05-07 14:18 | 57.60191 | -35.03821 | 37230 ft | 499 kts | 72° |
| 2026-05-07 14:18 | 57.61456 | -34.91092 | 37231 ft | 499 kts | 72° |
| 2026-05-07 14:19 | 57.62711 | -34.78326 | 37228 ft | 500 kts | 72° |
| 2026-05-07 14:19 | 57.63951 | -34.65584 | 37232 ft | 499 kts | 72° |
| 2026-05-07 14:20 | 57.65178 | -34.52822 | 37227 ft | 500 kts | 73° |
| 2026-05-07 14:20 | 57.66390 | -34.40053 | 37236 ft | 499 kts | 73° |
| 2026-05-07 14:21 | 57.67591 | -34.27264 | 37229 ft | 500 kts | 73° |
| 2026-05-07 14:21 | 57.68581 | -34.16628 | 37233 ft | 500 kts | 73° |
| 2026-05-07 14:22 | 57.69958 | -34.01650 | 37227 ft | 500 kts | 73° |
| 2026-05-07 14:22 | 57.71116 | -33.88901 | 37232 ft | 501 kts | 73° |
| 2026-05-07 14:23 | 57.72080 | -33.78129 | 37231 ft | 501 kts | 73° |
| 2026-05-07 14:23 | 57.73223 | -33.65273 | 37233 ft | 501 kts | 73° |
| 2026-05-07 14:24 | 57.74353 | -33.52430 | 37234 ft | 501 kts | 73° |
| 2026-05-07 14:24 | 57.75471 | -33.39537 | 37227 ft | 501 kts | 74° |
| 2026-05-07 14:25 | 57.76573 | -33.26656 | 37230 ft | 501 kts | 74° |
| 2026-05-07 14:25 | 57.77656 | -33.13859 | 37231 ft | 501 kts | 74° |
| 2026-05-07 14:26 | 57.78730 | -33.00967 | 37226 ft | 501 kts | 75° |
| 2026-05-07 14:26 | 57.79792 | -32.88090 | 37232 ft | 500 kts | 75° |
| 2026-05-07 14:27 | 57.80841 | -32.75215 | 37229 ft | 499 kts | 75° |
| 2026-05-07 14:27 | 57.81872 | -32.62359 | 37228 ft | 498 kts | 75° |
| 2026-05-07 14:28 | 57.82889 | -32.49491 | 37231 ft | 498 kts | 76° |
| 2026-05-07 14:28 | 57.83897 | -32.36619 | 37229 ft | 498 kts | 76° |
| 2026-05-07 14:29 | 57.84888 | -32.23745 | 37229 ft | 498 kts | 76° |
| 2026-05-07 14:29 | 57.85871 | -32.10852 | 37232 ft | 498 kts | 76° |
| 2026-05-07 14:30 | 57.86842 | -31.97977 | 37229 ft | 498 kts | 76° |
| 2026-05-07 14:30 | 57.87796 | -31.85082 | 37229 ft | 498 kts | 76° |
| 2026-05-07 14:31 | 57.88735 | -31.72188 | 37230 ft | 498 kts | 77° |
| 2026-05-07 14:31 | 57.89659 | -31.59292 | 37236 ft | 498 kts | 77° |
| 2026-05-07 14:32 | 57.90576 | -31.46366 | 37227 ft | 498 kts | 77° |
| 2026-05-07 14:32 | 57.91480 | -31.33441 | 37232 ft | 499 kts | 77° |
| 2026-05-07 14:33 | 57.92369 | -31.20498 | 37230 ft | 499 kts | 77° |
| 2026-05-07 14:33 | 57.93244 | -31.07554 | 37232 ft | 499 kts | 77° |
| 2026-05-07 14:34 | 57.94107 | -30.94589 | 37220 ft | 499 kts | 78° |
| 2026-05-07 14:34 | 57.94956 | -30.81636 | 37216 ft | 498 kts | 78° |
| 2026-05-07 14:35 | 57.95790 | -30.68694 | 37211 ft | 497 kts | 78° |
| 2026-05-07 14:35 | 57.96613 | -30.55762 | 37212 ft | 496 kts | 78° |
| 2026-05-07 14:36 | 57.97419 | -30.42867 | 37212 ft | 496 kts | 78° |
| 2026-05-07 14:36 | 57.98210 | -30.29978 | 37211 ft | 495 kts | 78° |
| 2026-05-07 14:37 | 57.98989 | -30.17093 | 37213 ft | 494 kts | 79° |
| 2026-05-07 14:37 | 58.00125 | -29.97798 | 37211 ft | 494 kts | 79° |
| 2026-05-07 14:38 | 58.00676 | -29.84863 | 37210 ft | 496 kts | 82° |
| 2026-05-07 14:38 | 58.01111 | -29.71882 | 37214 ft | 496 kts | 82° |
| 2026-05-07 14:39 | 58.01550 | -29.58969 | 37214 ft | 497 kts | 82° |
| 2026-05-07 14:39 | 58.02006 | -29.45977 | 37213 ft | 496 kts | 82° |
| 2026-05-07 14:40 | 58.02453 | -29.32967 | 37213 ft | 497 kts | 82° |
| 2026-05-07 14:40 | 58.02890 | -29.19952 | 37212 ft | 497 kts | 82° |
| 2026-05-07 14:41 | 58.03314 | -29.06942 | 37213 ft | 497 kts | 82° |
| 2026-05-07 14:41 | 58.03726 | -28.93915 | 37211 ft | 497 kts | 82° |
| 2026-05-07 14:42 | 58.04120 | -28.80890 | 37213 ft | 497 kts | 83° |
| 2026-05-07 14:42 | 58.04501 | -28.67876 | 37209 ft | 496 kts | 83° |
| 2026-05-07 14:43 | 58.04870 | -28.54888 | 37213 ft | 496 kts | 83° |
| 2026-05-07 14:43 | 58.05223 | -28.41880 | 37213 ft | 496 kts | 83° |
| 2026-05-07 14:44 | 58.05568 | -28.28885 | 37212 ft | 495 kts | 83° |
| 2026-05-07 14:44 | 58.05896 | -28.15890 | 37209 ft | 495 kts | 83° |
| 2026-05-07 14:45 | 58.06210 | -28.02903 | 37214 ft | 495 kts | 84° |
| 2026-05-07 14:45 | 58.06512 | -27.89910 | 37211 ft | 495 kts | 84° |
| 2026-05-07 14:46 | 58.06804 | -27.76896 | 37201 ft | 496 kts | 84° |
| 2026-05-07 14:46 | 58.07080 | -27.63893 | 37196 ft | 496 kts | 84° |
| 2026-05-07 14:47 | 58.07342 | -27.50862 | 37192 ft | 496 kts | 84° |
| 2026-05-07 14:47 | 58.07587 | -27.37857 | 37193 ft | 495 kts | 84° |
| 2026-05-07 14:48 | 58.07824 | -27.24862 | 37182 ft | 495 kts | 85° |
| 2026-05-07 14:48 | 58.08045 | -27.11864 | 37197 ft | 495 kts | 85° |
| 2026-05-07 14:49 | 58.08257 | -26.98863 | 37194 ft | 495 kts | 85° |
| 2026-05-07 14:49 | 58.08453 | -26.85933 | 37199 ft | 495 kts | 85° |
| 2026-05-07 14:50 | 58.08636 | -26.72941 | 37182 ft | 495 kts | 85° |
| 2026-05-07 14:50 | 58.08806 | -26.59930 | 37192 ft | 495 kts | 85° |
| 2026-05-07 14:51 | 58.08961 | -26.46908 | 37199 ft | 495 kts | 86° |
| 2026-05-07 14:51 | 58.09103 | -26.33884 | 37197 ft | 496 kts | 86° |
| 2026-05-07 14:52 | 58.09232 | -26.20919 | 37193 ft | 497 kts | 86° |
| 2026-05-07 14:52 | 58.09351 | -26.07853 | 37192 ft | 497 kts | 86° |
| 2026-05-07 14:53 | 58.09453 | -25.94789 | 37195 ft | 496 kts | 86° |
| 2026-05-07 14:53 | 58.09542 | -25.81731 | 37179 ft | 496 kts | 86° |
| 2026-05-07 14:54 | 58.09624 | -25.68681 | 37180 ft | 497 kts | 86° |
| 2026-05-07 14:54 | 58.09686 | -25.55631 | 37189 ft | 496 kts | 87° |
| 2026-05-07 14:55 | 58.09735 | -25.42571 | 37184 ft | 496 kts | 87° |
| 2026-05-07 14:55 | 58.09773 | -25.29617 | 37184 ft | 496 kts | 87° |
| 2026-05-07 14:56 | 58.09795 | -25.16573 | 37187 ft | 496 kts | 87° |
| 2026-05-07 14:56 | 58.09803 | -25.03544 | 37183 ft | 495 kts | 88° |
| 2026-05-07 14:57 | 58.09800 | -24.90538 | 37183 ft | 494 kts | 88° |
| 2026-05-07 14:57 | 58.09788 | -24.77542 | 37190 ft | 494 kts | 88° |
| 2026-05-07 14:58 | 58.09758 | -24.64543 | 37178 ft | 494 kts | 88° |
| 2026-05-07 14:58 | 58.09717 | -24.51541 | 37179 ft | 495 kts | 88° |
| 2026-05-07 14:59 | 58.09659 | -24.38513 | 37180 ft | 496 kts | 88° |
| 2026-05-07 14:59 | 58.09587 | -24.25473 | 37173 ft | 496 kts | 89° |
| 2026-05-07 15:00 | 58.09506 | -24.12429 | 37176 ft | 497 kts | 89° |
| 2026-05-07 15:00 | 58.09408 | -23.99453 | 37173 ft | 497 kts | 89° |
| 2026-05-07 15:01 | 58.09299 | -23.86370 | 37181 ft | 497 kts | 89° |
| 2026-05-07 15:01 | 58.09180 | -23.73312 | 37175 ft | 497 kts | 89° |
| 2026-05-07 15:02 | 58.09042 | -23.60227 | 37177 ft | 497 kts | 89° |
| 2026-05-07 15:02 | 58.08887 | -23.47147 | 37172 ft | 497 kts | 89° |
| 2026-05-07 15:03 | 58.08728 | -23.34095 | 37197 ft | 496 kts | 89° |
| 2026-05-07 15:03 | 58.08554 | -23.21059 | 37195 ft | 496 kts | 90° |
| 2026-05-07 15:04 | 58.08364 | -23.08102 | 37196 ft | 496 kts | 90° |
| 2026-05-07 15:04 | 58.08163 | -22.95097 | 37192 ft | 495 kts | 90° |
| 2026-05-07 15:05 | 58.07946 | -22.82103 | 37195 ft | 494 kts | 90° |
| 2026-05-07 15:05 | 58.07718 | -22.69097 | 37153 ft | 495 kts | 91° |
| 2026-05-07 15:06 | 58.07474 | -22.56098 | 37132 ft | 495 kts | 90° |
| 2026-05-07 15:06 | 58.07262 | -22.45267 | 37132 ft | 496 kts | 91° |
| 2026-05-07 15:07 | 58.06952 | -22.30132 | 37125 ft | 496 kts | 91° |
| 2026-05-07 15:07 | 58.06669 | -22.17073 | 37128 ft | 497 kts | 91° |
| 2026-05-07 15:08 | 58.06423 | -22.06236 | 37131 ft | 497 kts | 91° |
| 2026-05-07 15:08 | 58.06119 | -21.93159 | 37131 ft | 498 kts | 91° |
| 2026-05-07 15:09 | 58.05797 | -21.80084 | 37130 ft | 498 kts | 91° |
| 2026-05-07 15:09 | 58.05459 | -21.67014 | 37131 ft | 498 kts | 91° |
| 2026-05-07 15:10 | 58.05112 | -21.53920 | 37131 ft | 499 kts | 91° |
| 2026-05-07 15:10 | 58.04748 | -21.40856 | 37128 ft | 498 kts | 92° |
| 2026-05-07 15:11 | 58.04376 | -21.27864 | 37122 ft | 498 kts | 92° |
| 2026-05-07 15:11 | 58.03990 | -21.14802 | 37119 ft | 498 kts | 92° |
| 2026-05-07 15:12 | 58.03588 | -21.01734 | 37114 ft | 498 kts | 92° |
| 2026-05-07 15:12 | 58.03173 | -20.88672 | 37113 ft | 498 kts | 92° |
| 2026-05-07 15:13 | 58.02744 | -20.75615 | 37104 ft | 499 kts | 93° |
| 2026-05-07 15:13 | 58.02302 | -20.62552 | 37099 ft | 499 kts | 93° |
| 2026-05-07 15:14 | 58.01847 | -20.49488 | 37085 ft | 499 kts | 93° |
| 2026-05-07 15:14 | 58.01378 | -20.36429 | 37095 ft | 499 kts | 93° |
| 2026-05-07 15:15 | 58.00899 | -20.23456 | 37091 ft | 499 kts | 94° |
| 2026-05-07 15:15 | 58.00407 | -20.10402 | 37082 ft | 500 kts | 94° |
| 2026-05-07 15:16 | 57.99492 | -19.97409 | 37092 ft | 500 kts | 103° |
| 2026-05-07 15:16 | 57.97436 | -19.84898 | 37057 ft | 500 kts | 109° |
| 2026-05-07 15:17 | 57.95169 | -19.72500 | 37053 ft | 501 kts | 109° |
| 2026-05-07 15:17 | 57.92917 | -19.60100 | 37058 ft | 500 kts | 109° |
| 2026-05-07 15:18 | 57.90682 | -19.47697 | 37054 ft | 500 kts | 109° |
| 2026-05-07 15:18 | 57.88447 | -19.35322 | 37057 ft | 500 kts | 109° |
| 2026-05-07 15:19 | 57.86195 | -19.22930 | 37057 ft | 501 kts | 109° |
| 2026-05-07 15:19 | 57.83931 | -19.10562 | 37059 ft | 501 kts | 109° |
| 2026-05-07 15:20 | 57.81652 | -18.98215 | 37057 ft | 501 kts | 110° |
| 2026-05-07 15:20 | 57.79359 | -18.85861 | 37054 ft | 501 kts | 110° |
| 2026-05-07 15:21 | 57.77067 | -18.73603 | 37054 ft | 501 kts | 110° |
| 2026-05-07 15:21 | 57.74750 | -18.61269 | 37045 ft | 502 kts | 110° |
| 2026-05-07 15:22 | 57.72424 | -18.48980 | 37046 ft | 501 kts | 110° |
| 2026-05-07 15:22 | 57.70085 | -18.36697 | 37048 ft | 501 kts | 110° |
| 2026-05-07 15:23 | 57.67734 | -18.24436 | 37048 ft | 501 kts | 110° |
| 2026-05-07 15:23 | 57.65374 | -18.12201 | 37045 ft | 500 kts | 111° |
| 2026-05-07 15:24 | 57.63004 | -17.99996 | 37042 ft | 500 kts | 111° |
| 2026-05-07 15:24 | 57.60636 | -17.87865 | 37043 ft | 500 kts | 111° |
| 2026-05-07 15:25 | 57.58244 | -17.75691 | 37048 ft | 500 kts | 111° |
| 2026-05-07 15:25 | 57.55839 | -17.63528 | 37036 ft | 500 kts | 111° |
| 2026-05-07 15:26 | 57.53418 | -17.51384 | 37035 ft | 500 kts | 111° |
| 2026-05-07 15:26 | 57.50992 | -17.39256 | 37041 ft | 500 kts | 112° |
| 2026-05-07 15:27 | 57.48551 | -17.27132 | 37036 ft | 500 kts | 112° |
| 2026-05-07 15:27 | 57.46100 | -17.15042 | 37033 ft | 500 kts | 112° |
| 2026-05-07 15:28 | 57.43637 | -17.02965 | 37032 ft | 500 kts | 112° |
| 2026-05-07 15:28 | 57.41160 | -16.90883 | 37041 ft | 500 kts | 112° |
| 2026-05-07 15:29 | 57.38673 | -16.78837 | 37026 ft | 500 kts | 113° |
| 2026-05-07 15:29 | 57.36194 | -16.66893 | 37028 ft | 499 kts | 113° |
| 2026-05-07 15:30 | 57.33675 | -16.54826 | 37028 ft | 499 kts | 113° |
| 2026-05-07 15:30 | 57.31178 | -16.42942 | 37027 ft | 499 kts | 113° |
| 2026-05-07 15:31 | 57.28655 | -16.30998 | 37025 ft | 499 kts | 113° |
| 2026-05-07 15:31 | 57.26120 | -16.19078 | 37024 ft | 498 kts | 114° |
| 2026-05-07 15:32 | 57.23577 | -16.07168 | 37019 ft | 498 kts | 114° |
| 2026-05-07 15:32 | 57.21020 | -15.95282 | 37018 ft | 498 kts | 114° |
| 2026-05-07 15:33 | 57.18451 | -15.83405 | 37019 ft | 498 kts | 114° |
| 2026-05-07 15:33 | 57.15875 | -15.71563 | 37017 ft | 498 kts | 114° |
| 2026-05-07 15:34 | 57.13283 | -15.59710 | 37018 ft | 498 kts | 114° |
| 2026-05-07 15:34 | 57.10686 | -15.47904 | 37009 ft | 498 kts | 115° |
| 2026-05-07 15:35 | 57.08080 | -15.36121 | 37008 ft | 497 kts | 115° |
| 2026-05-07 15:35 | 57.05461 | -15.24345 | 37011 ft | 497 kts | 115° |
| 2026-05-07 15:36 | 57.02835 | -15.12599 | 36972 ft | 498 kts | 115° |
| 2026-05-07 15:36 | 57.00497 | -15.00621 | 36881 ft | 501 kts | 107° |
| 2026-05-07 15:37 | 56.99319 | -14.87989 | 36886 ft | 503 kts | 97° |
| 2026-05-07 15:37 | 56.98774 | -14.75210 | 36879 ft | 503 kts | 97° |
| 2026-05-07 15:38 | 56.98204 | -14.62441 | 36882 ft | 502 kts | 97° |
| 2026-05-07 15:38 | 56.97583 | -14.49701 | 36876 ft | 502 kts | 97° |
| 2026-05-07 15:39 | 56.96938 | -14.36977 | 36882 ft | 502 kts | 98° |
| 2026-05-07 15:39 | 56.96284 | -14.24248 | 36880 ft | 502 kts | 98° |
| 2026-05-07 15:40 | 56.95618 | -14.11527 | 36877 ft | 502 kts | 98° |
| 2026-05-07 15:40 | 56.95008 | -14.05281 | 36882 ft | 495 kts | 111° |
| 2026-05-07 15:40 | 56.93671 | -13.99522 | 36880 ft | 490 kts | 123° |
| 2026-05-07 15:41 | 56.91775 | -13.94405 | 36875 ft | 484 kts | 134° |
| 2026-05-07 15:41 | 56.89416 | -13.90105 | 36875 ft | 477 kts | 142° |
| 2026-05-07 15:41 | 56.84483 | -13.81973 | 36873 ft | 478 kts | 142° |
| 2026-05-07 15:42 | 56.79555 | -13.73786 | 36874 ft | 480 kts | 142° |
| 2026-05-07 15:42 | 56.74639 | -13.65526 | 36870 ft | 480 kts | 141° |
| 2026-05-07 15:43 | 56.69731 | -13.57275 | 36870 ft | 480 kts | 141° |
| 2026-05-07 15:43 | 56.64823 | -13.49052 | 36871 ft | 479 kts | 141° |
| 2026-05-07 15:44 | 56.59917 | -13.40868 | 36871 ft | 478 kts | 142° |
| 2026-05-07 15:44 | 56.55011 | -13.32714 | 36871 ft | 477 kts | 142° |
| 2026-05-07 15:45 | 56.50148 | -13.24656 | 36869 ft | 477 kts | 142° |
| 2026-05-07 15:45 | 56.45258 | -13.16583 | 36870 ft | 475 kts | 142° |
| 2026-05-07 15:46 | 56.37931 | -13.04558 | 36873 ft | 474 kts | 142° |
| 2026-05-07 15:47 | 56.33046 | -12.96573 | 36871 ft | 473 kts | 142° |
| 2026-05-07 15:47 | 56.28168 | -12.88624 | 36871 ft | 473 kts | 142° |
| 2026-05-07 15:48 | 56.23292 | -12.80708 | 36873 ft | 472 kts | 143° |
| 2026-05-07 15:48 | 56.18420 | -12.72824 | 36870 ft | 471 kts | 143° |
| 2026-05-07 15:49 | 56.13552 | -12.64983 | 36871 ft | 470 kts | 143° |
| 2026-05-07 15:49 | 56.08690 | -12.57178 | 36871 ft | 469 kts | 143° |
| 2026-05-07 15:50 | 56.03826 | -12.49383 | 36865 ft | 468 kts | 143° |
| 2026-05-07 15:50 | 55.98972 | -12.41651 | 36859 ft | 467 kts | 143° |
| 2026-05-07 15:51 | 55.94121 | -12.33937 | 36861 ft | 465 kts | 143° |
| 2026-05-07 15:51 | 55.89288 | -12.26282 | 36870 ft | 465 kts | 143° |
| 2026-05-07 15:52 | 55.84448 | -12.18635 | 36869 ft | 465 kts | 143° |
| 2026-05-07 15:52 | 55.80426 | -12.12315 | 36871 ft | 464 kts | 143° |
| 2026-05-07 15:53 | 55.75585 | -12.04729 | 36868 ft | 464 kts | 143° |
| 2026-05-07 15:53 | 55.70745 | -11.97161 | 36872 ft | 463 kts | 143° |
| 2026-05-07 15:54 | 55.65902 | -11.89624 | 36872 ft | 464 kts | 143° |
| 2026-05-07 15:54 | 55.61047 | -11.82095 | 36870 ft | 464 kts | 143° |
| 2026-05-07 15:55 | 55.56176 | -11.74558 | 36875 ft | 465 kts | 143° |
| 2026-05-07 15:55 | 55.51296 | -11.67031 | 36870 ft | 466 kts | 143° |
| 2026-05-07 15:56 | 55.46407 | -11.59520 | 36872 ft | 466 kts | 143° |
| 2026-05-07 15:56 | 55.41515 | -11.52027 | 36882 ft | 466 kts | 143° |
| 2026-05-07 15:57 | 55.36615 | -11.44544 | 36880 ft | 466 kts | 143° |
| 2026-05-07 15:57 | 55.31706 | -11.37086 | 36884 ft | 466 kts | 143° |
| 2026-05-07 15:58 | 55.26799 | -11.29646 | 36879 ft | 466 kts | 143° |
| 2026-05-07 15:58 | 55.21879 | -11.22222 | 36878 ft | 466 kts | 143° |
| 2026-05-07 15:59 | 55.16960 | -11.14823 | 36883 ft | 466 kts | 143° |
| 2026-05-07 15:59 | 55.12036 | -11.07431 | 36882 ft | 466 kts | 143° |
| 2026-05-07 16:00 | 55.07112 | -11.00069 | 36887 ft | 466 kts | 143° |
| 2026-05-07 16:00 | 55.02183 | -10.92724 | 36909 ft | 465 kts | 143° |
| 2026-05-07 16:01 | 54.97248 | -10.85399 | 36928 ft | 466 kts | 143° |
| 2026-05-07 16:01 | 54.92339 | -10.78131 | 36914 ft | 466 kts | 143° |
| 2026-05-07 16:02 | 54.87390 | -10.70825 | 36910 ft | 467 kts | 144° |
| 2026-05-07 16:02 | 54.82433 | -10.63539 | 36924 ft | 467 kts | 143° |
| 2026-05-07 16:03 | 54.77472 | -10.56270 | 36911 ft | 467 kts | 143° |
| 2026-05-07 16:03 | 54.72505 | -10.49019 | 36917 ft | 467 kts | 143° |
| 2026-05-07 16:04 | 54.67526 | -10.41770 | 36915 ft | 467 kts | 144° |
| 2026-05-07 16:04 | 54.62558 | -10.34559 | 36923 ft | 467 kts | 143° |
| 2026-05-07 16:05 | 54.57600 | -10.27387 | 36913 ft | 467 kts | 143° |
| 2026-05-07 16:05 | 54.52619 | -10.20202 | 36909 ft | 467 kts | 144° |
| 2026-05-07 16:06 | 54.47688 | -10.12886 | 36917 ft | 470 kts | 139° |
| 2026-05-07 16:06 | 54.43454 | -10.04274 | 36930 ft | 475 kts | 129° |
| 2026-05-07 16:07 | 54.39616 | -9.95039 | 36907 ft | 475 kts | 129° |
| 2026-05-07 16:07 | 54.35761 | -9.85827 | 36916 ft | 476 kts | 129° |
| 2026-05-07 16:08 | 54.31872 | -9.76651 | 36920 ft | 475 kts | 129° |
| 2026-05-07 16:08 | 54.27976 | -9.67521 | 36906 ft | 475 kts | 129° |
| 2026-05-07 16:09 | 54.24073 | -9.58408 | 36906 ft | 475 kts | 130° |
| 2026-05-07 16:09 | 54.20158 | -9.49300 | 36910 ft | 475 kts | 130° |
| 2026-05-07 16:10 | 54.16274 | -9.40291 | 36904 ft | 474 kts | 130° |
| 2026-05-07 16:10 | 54.12359 | -9.31243 | 36912 ft | 473 kts | 130° |
| 2026-05-07 16:11 | 54.08444 | -9.22233 | 36928 ft | 473 kts | 130° |
| 2026-05-07 16:11 | 54.04529 | -9.13257 | 36907 ft | 472 kts | 130° |
| 2026-05-07 16:12 | 54.00610 | -9.04294 | 36908 ft | 472 kts | 130° |
| 2026-05-07 16:12 | 53.96689 | -8.95358 | 36917 ft | 471 kts | 130° |
| 2026-05-07 16:13 | 53.92775 | -8.86447 | 36911 ft | 471 kts | 128° |
| 2026-05-07 16:13 | 53.89488 | -8.76801 | 36915 ft | 475 kts | 117° |
| 2026-05-07 16:14 | 53.87018 | -8.66386 | 36910 ft | 476 kts | 115° |
| 2026-05-07 16:14 | 53.84590 | -8.55954 | 36918 ft | 476 kts | 115° |
| 2026-05-07 16:15 | 53.82123 | -8.45529 | 36920 ft | 476 kts | 115° |
| 2026-05-07 16:15 | 53.79635 | -8.35146 | 36920 ft | 475 kts | 115° |
| 2026-05-07 16:16 | 53.77134 | -8.24798 | 36913 ft | 475 kts | 115° |
| 2026-05-07 16:16 | 53.74630 | -8.14472 | 36912 ft | 475 kts | 115° |
| 2026-05-07 16:17 | 53.72117 | -8.04151 | 36919 ft | 475 kts | 116° |
| 2026-05-07 16:17 | 53.69602 | -7.93871 | 36933 ft | 474 kts | 116° |
| 2026-05-07 16:18 | 53.67074 | -7.83589 | 36916 ft | 474 kts | 116° |
| 2026-05-07 16:18 | 53.64539 | -7.73338 | 36930 ft | 474 kts | 116° |
| 2026-05-07 16:19 | 53.62012 | -7.63149 | 36931 ft | 474 kts | 116° |
| 2026-05-07 16:19 | 53.59444 | -7.52845 | 36927 ft | 474 kts | 116° |
| 2026-05-07 16:20 | 53.56883 | -7.42621 | 36933 ft | 474 kts | 116° |
| 2026-05-07 16:20 | 53.54330 | -7.32471 | 36934 ft | 474 kts | 116° |
| 2026-05-07 16:21 | 53.51752 | -7.22276 | 36935 ft | 474 kts | 116° |
| 2026-05-07 16:21 | 53.49168 | -7.12097 | 36934 ft | 473 kts | 116° |
| 2026-05-07 16:22 | 53.46573 | -7.01928 | 36939 ft | 473 kts | 116° |
| 2026-05-07 16:22 | 53.43978 | -6.91802 | 36945 ft | 472 kts | 116° |
| 2026-05-07 16:23 | 53.41375 | -6.81702 | 36946 ft | 471 kts | 116° |
| 2026-05-07 16:23 | 53.38771 | -6.71619 | 36945 ft | 471 kts | 116° |
| 2026-05-07 16:24 | 53.36162 | -6.61573 | 36943 ft | 470 kts | 116° |
| 2026-05-07 16:24 | 53.33545 | -6.51544 | 36943 ft | 470 kts | 116° |
| 2026-05-07 16:25 | 53.30919 | -6.41522 | 36934 ft | 470 kts | 116° |
| 2026-05-07 16:25 | 53.28288 | -6.31528 | 36934 ft | 469 kts | 116° |
| 2026-05-07 16:26 | 53.25654 | -6.21560 | 36944 ft | 469 kts | 116° |
| 2026-05-07 16:26 | 53.23013 | -6.11606 | 36947 ft | 469 kts | 116° |
| 2026-05-07 16:27 | 53.20361 | -6.01668 | 36943 ft | 469 kts | 117° |
| 2026-05-07 16:27 | 53.17700 | -5.91732 | 36946 ft | 469 kts | 116° |
| 2026-05-07 16:28 | 53.15032 | -5.81811 | 36951 ft | 469 kts | 116° |
| 2026-05-07 16:28 | 53.12360 | -5.71921 | 36959 ft | 469 kts | 116° |
| 2026-05-07 16:29 | 53.09677 | -5.62025 | 36965 ft | 469 kts | 117° |
| 2026-05-07 16:29 | 53.06993 | -5.52192 | 36964 ft | 470 kts | 118° |
| 2026-05-07 16:30 | 53.03723 | -5.42824 | 36981 ft | 468 kts | 125° |
| 2026-05-07 16:30 | 53.00149 | -5.33775 | 36972 ft | 468 kts | 126° |
| 2026-05-07 16:31 | 52.96581 | -5.24740 | 36980 ft | 469 kts | 125° |
| 2026-05-07 16:31 | 52.93020 | -5.15668 | 36980 ft | 469 kts | 125° |
| 2026-05-07 16:32 | 52.89458 | -5.06602 | 36983 ft | 470 kts | 125° |
| 2026-05-07 16:32 | 52.85889 | -4.97538 | 36985 ft | 470 kts | 125° |
| 2026-05-07 16:33 | 52.82311 | -4.88486 | 36985 ft | 470 kts | 125° |
| 2026-05-07 16:33 | 52.78728 | -4.79462 | 36987 ft | 470 kts | 125° |
| 2026-05-07 16:34 | 52.75138 | -4.70452 | 36991 ft | 470 kts | 125° |
| 2026-05-07 16:34 | 52.71544 | -4.61461 | 36991 ft | 470 kts | 125° |
| 2026-05-07 16:35 | 52.67936 | -4.52467 | 36991 ft | 470 kts | 125° |
| 2026-05-07 16:35 | 52.64320 | -4.43481 | 36990 ft | 471 kts | 125° |
| 2026-05-07 16:36 | 52.61305 | -4.36021 | 36991 ft | 471 kts | 126° |
| 2026-05-07 16:36 | 52.57671 | -4.27049 | 36997 ft | 471 kts | 126° |
| 2026-05-07 16:37 | 52.54030 | -4.18084 | 37002 ft | 471 kts | 126° |
| 2026-05-07 16:37 | 52.50376 | -4.09127 | 36999 ft | 473 kts | 126° |
| 2026-05-07 16:38 | 52.46705 | -4.00166 | 37004 ft | 473 kts | 126° |
| 2026-05-07 16:38 | 52.43025 | -3.91214 | 37000 ft | 474 kts | 126° |
| 2026-05-07 16:39 | 52.39331 | -3.82254 | 36996 ft | 475 kts | 126° |
| 2026-05-07 16:39 | 52.35628 | -3.73311 | 37003 ft | 475 kts | 126° |
| 2026-05-07 16:40 | 52.31918 | -3.64378 | 36997 ft | 474 kts | 126° |
| 2026-05-07 16:40 | 52.28211 | -3.55478 | 37009 ft | 473 kts | 126° |
| 2026-05-07 16:41 | 52.24520 | -3.46647 | 37010 ft | 473 kts | 126° |
| 2026-05-07 16:41 | 52.20777 | -3.37728 | 37008 ft | 473 kts | 126° |
| 2026-05-07 16:42 | 52.17052 | -3.28885 | 37010 ft | 473 kts | 126° |
| 2026-05-07 16:42 | 52.13353 | -3.20131 | 37020 ft | 473 kts | 126° |
| 2026-05-07 16:43 | 52.09614 | -3.11309 | 37017 ft | 472 kts | 126° |
| 2026-05-07 16:43 | 52.05879 | -3.02532 | 37018 ft | 472 kts | 126° |
| 2026-05-07 16:44 | 52.02141 | -2.93771 | 37020 ft | 472 kts | 126° |
| 2026-05-07 16:44 | 51.98395 | -2.85026 | 37016 ft | 473 kts | 126° |
| 2026-05-07 16:45 | 51.94627 | -2.76261 | 37017 ft | 474 kts | 127° |
| 2026-05-07 16:45 | 51.90846 | -2.67491 | 37022 ft | 474 kts | 127° |
| 2026-05-07 16:46 | 51.87059 | -2.58742 | 37020 ft | 475 kts | 127° |
| 2026-05-07 16:46 | 51.83257 | -2.49986 | 37020 ft | 476 kts | 127° |
| 2026-05-07 16:47 | 51.79443 | -2.41233 | 37017 ft | 476 kts | 127° |
| 2026-05-07 16:47 | 51.75645 | -2.32541 | 37019 ft | 476 kts | 127° |
| 2026-05-07 16:48 | 51.71820 | -2.23818 | 37019 ft | 476 kts | 127° |
| 2026-05-07 16:48 | 51.67989 | -2.15113 | 37023 ft | 476 kts | 127° |
| 2026-05-07 16:49 | 51.64152 | -2.06424 | 37022 ft | 476 kts | 127° |
| 2026-05-07 16:49 | 51.60315 | -1.97769 | 37028 ft | 475 kts | 127° |
| 2026-05-07 16:50 | 51.56475 | -1.89126 | 37029 ft | 475 kts | 127° |
| 2026-05-07 16:50 | 51.52633 | -1.80511 | 37027 ft | 475 kts | 127° |
| 2026-05-07 16:51 | 51.48782 | -1.71899 | 37028 ft | 475 kts | 127° |
| 2026-05-07 16:51 | 51.44766 | -1.63503 | 37019 ft | 474 kts | 131° |
| 2026-05-07 16:52 | 51.40496 | -1.55438 | 37027 ft | 474 kts | 132° |
| 2026-05-07 16:52 | 51.36232 | -1.47401 | 37029 ft | 474 kts | 132° |
| 2026-05-07 16:53 | 51.31967 | -1.39344 | 37030 ft | 474 kts | 132° |
| 2026-05-07 16:53 | 51.27702 | -1.31299 | 37029 ft | 475 kts | 132° |
| 2026-05-07 16:54 | 51.23425 | -1.23254 | 37033 ft | 475 kts | 132° |
| 2026-05-07 16:54 | 51.19144 | -1.15225 | 37055 ft | 475 kts | 132° |
| 2026-05-07 16:55 | 51.14851 | -1.07203 | 37048 ft | 476 kts | 132° |
| 2026-05-07 16:55 | 51.10553 | -0.99197 | 37046 ft | 476 kts | 132° |
| 2026-05-07 16:56 | 51.06249 | -0.91202 | 37044 ft | 476 kts | 132° |
| 2026-05-07 16:56 | 50.99783 | -0.79245 | 37050 ft | 476 kts | 133° |
| 2026-05-07 16:57 | 50.95460 | -0.71279 | 37044 ft | 475 kts | 133° |
| 2026-05-07 16:57 | 50.91140 | -0.63340 | 37050 ft | 475 kts | 133° |
| 2026-05-07 16:58 | 50.86814 | -0.55413 | 37050 ft | 476 kts | 133° |
| 2026-05-07 16:58 | 50.82475 | -0.47493 | 37042 ft | 476 kts | 133° |
| 2026-05-07 16:59 | 50.78138 | -0.39591 | 37046 ft | 476 kts | 133° |
| 2026-05-07 16:59 | 50.73792 | -0.31701 | 37047 ft | 476 kts | 133° |
| 2026-05-07 17:00 | 50.69155 | -0.24305 | 37054 ft | 473 kts | 142° |
| 2026-05-07 17:00 | 50.63797 | -0.18356 | 37055 ft | 471 kts | 149° |
| 2026-05-07 17:01 | 50.58304 | -0.12727 | 37049 ft | 471 kts | 149° |
| 2026-05-07 17:01 | 50.52862 | -0.07084 | 37052 ft | 471 kts | 148° |
| 2026-05-07 17:02 | 50.47398 | -0.01389 | 37054 ft | 471 kts | 148° |
| 2026-05-07 17:02 | 50.41940 | 0.04285 | 37053 ft | 471 kts | 149° |
| 2026-05-07 17:03 | 50.36457 | 0.09978 | 37058 ft | 473 kts | 149° |
| 2026-05-07 17:03 | 50.30950 | 0.15688 | 37057 ft | 475 kts | 148° |
| 2026-05-07 17:04 | 50.25431 | 0.21406 | 37061 ft | 477 kts | 149° |
| 2026-05-07 17:04 | 50.19882 | 0.27135 | 37060 ft | 478 kts | 149° |
| 2026-05-07 17:05 | 50.14330 | 0.32837 | 37058 ft | 478 kts | 149° |
| 2026-05-07 17:05 | 50.08770 | 0.38529 | 37043 ft | 478 kts | 149° |
| 2026-05-07 17:06 | 50.03214 | 0.44203 | 37030 ft | 477 kts | 149° |
| 2026-05-07 17:06 | 49.97673 | 0.49850 | 37034 ft | 476 kts | 149° |
| 2026-05-07 17:07 | 49.92135 | 0.55482 | 37030 ft | 475 kts | 149° |
| 2026-05-07 17:07 | 49.86698 | 0.61204 | 37026 ft | 476 kts | 144° |
| 2026-05-07 17:08 | 49.81839 | 0.68317 | 37029 ft | 479 kts | 134° |
| 2026-05-07 17:08 | 49.77399 | 0.75944 | 37033 ft | 481 kts | 134° |
| 2026-05-07 17:09 | 49.72883 | 0.83670 | 37032 ft | 481 kts | 135° |
| 2026-05-07 17:09 | 49.68396 | 0.91262 | 37026 ft | 482 kts | 135° |
| 2026-05-07 17:10 | 49.63828 | 0.98937 | 37029 ft | 482 kts | 135° |
| 2026-05-07 17:10 | 49.59316 | 1.06487 | 37028 ft | 482 kts | 135° |
| 2026-05-07 17:11 | 49.54770 | 1.14084 | 37030 ft | 482 kts | 135° |
| 2026-05-07 17:11 | 49.50215 | 1.21665 | 37025 ft | 482 kts | 135° |
| 2026-05-07 17:12 | 49.45660 | 1.29227 | 37022 ft | 482 kts | 135° |
| 2026-05-07 17:12 | 49.41103 | 1.36770 | 37018 ft | 482 kts | 135° |
| 2026-05-07 17:13 | 49.36540 | 1.44305 | 37029 ft | 482 kts | 135° |
| 2026-05-07 17:13 | 49.31967 | 1.51828 | 37027 ft | 482 kts | 135° |
| 2026-05-07 17:14 | 49.27394 | 1.59332 | 37027 ft | 482 kts | 135° |
| 2026-05-07 17:14 | 49.22814 | 1.66827 | 37031 ft | 482 kts | 135° |
| 2026-05-07 17:15 | 49.18225 | 1.74319 | 37025 ft | 483 kts | 135° |
| 2026-05-07 17:15 | 49.13630 | 1.81789 | 37026 ft | 482 kts | 135° |
| 2026-05-07 17:16 | 49.09031 | 1.89251 | 37028 ft | 482 kts | 136° |
| 2026-05-07 17:16 | 49.04431 | 1.96686 | 37022 ft | 482 kts | 136° |
| 2026-05-07 17:17 | 48.99820 | 2.04119 | 37013 ft | 483 kts | 136° |
| 2026-05-07 17:17 | 48.95211 | 2.11533 | 37026 ft | 482 kts | 136° |
| 2026-05-07 17:18 | 48.90591 | 2.18940 | 37029 ft | 482 kts | 136° |
| 2026-05-07 17:18 | 48.85965 | 2.26336 | 37029 ft | 483 kts | 136° |
| 2026-05-07 17:19 | 48.82106 | 2.32489 | 37029 ft | 484 kts | 136° |
| 2026-05-07 17:19 | 48.77453 | 2.39890 | 37026 ft | 485 kts | 136° |
| 2026-05-07 17:20 | 48.72793 | 2.47281 | 37026 ft | 485 kts | 136° |
| 2026-05-07 17:20 | 48.68095 | 2.54711 | 37023 ft | 485 kts | 136° |
| 2026-05-07 17:21 | 48.63452 | 2.62036 | 37015 ft | 485 kts | 136° |
| 2026-05-07 17:21 | 48.58856 | 2.69278 | 37014 ft | 484 kts | 134° |
| 2026-05-07 17:22 | 48.56831 | 2.73367 | 37013 ft | 488 kts | 121° |
| 2026-05-07 17:22 | 48.55463 | 2.78065 | 37028 ft | 491 kts | 109° |
| 2026-05-07 17:22 | 48.54757 | 2.83104 | 37013 ft | 494 kts | 95° |
| 2026-05-07 17:22 | 48.54664 | 2.88304 | 37021 ft | 495 kts | 91° |
| 2026-05-07 17:23 | 48.54474 | 2.98686 | 37026 ft | 495 kts | 94° |
| 2026-05-07 17:23 | 48.54115 | 3.09087 | 37030 ft | 496 kts | 94° |
| 2026-05-07 17:24 | 48.53730 | 3.19507 | 37028 ft | 496 kts | 94° |
| 2026-05-07 17:24 | 48.53354 | 3.29857 | 37032 ft | 497 kts | 94° |
| 2026-05-07 17:25 | 48.52970 | 3.40265 | 37033 ft | 497 kts | 94° |
| 2026-05-07 17:25 | 48.52579 | 3.50693 | 37029 ft | 497 kts | 94° |
| 2026-05-07 17:26 | 48.52176 | 3.61116 | 37045 ft | 497 kts | 94° |
| 2026-05-07 17:26 | 48.51764 | 3.71525 | 37048 ft | 497 kts | 94° |
| 2026-05-07 17:27 | 48.51345 | 3.81941 | 37047 ft | 497 kts | 94° |
| 2026-05-07 17:27 | 48.50916 | 3.92365 | 37045 ft | 497 kts | 94° |
| 2026-05-07 17:28 | 48.49777 | 4.02614 | 37049 ft | 495 kts | 108° |
| 2026-05-07 17:28 | 48.47213 | 4.12108 | 37049 ft | 492 kts | 119° |
| 2026-05-07 17:29 | 48.43995 | 4.21216 | 37040 ft | 492 kts | 120° |
| 2026-05-07 17:29 | 48.40773 | 4.30313 | 37049 ft | 492 kts | 120° |
| 2026-05-07 17:30 | 48.37579 | 4.39445 | 37048 ft | 493 kts | 119° |
| 2026-05-07 17:30 | 48.34396 | 4.48576 | 37050 ft | 493 kts | 120° |
| 2026-05-07 17:31 | 48.31204 | 4.57699 | 37045 ft | 493 kts | 120° |
| 2026-05-07 17:31 | 48.27998 | 4.66817 | 37049 ft | 493 kts | 120° |
| 2026-05-07 17:32 | 48.24785 | 4.75933 | 37045 ft | 494 kts | 120° |
| 2026-05-07 17:32 | 48.21585 | 4.84966 | 37050 ft | 493 kts | 120° |
| 2026-05-07 17:33 | 48.18356 | 4.94062 | 37045 ft | 494 kts | 120° |
| 2026-05-07 17:33 | 48.15121 | 5.03131 | 37027 ft | 494 kts | 120° |
| 2026-05-07 17:34 | 48.11876 | 5.12214 | 37017 ft | 494 kts | 119° |
| 2026-05-07 17:34 | 48.09218 | 5.21697 | 37016 ft | 496 kts | 108° |
| 2026-05-07 17:35 | 48.07359 | 5.31645 | 37015 ft | 497 kts | 107° |
| 2026-05-07 17:35 | 48.05505 | 5.41605 | 37020 ft | 497 kts | 107° |
| 2026-05-07 17:36 | 48.03612 | 5.51543 | 37032 ft | 498 kts | 107° |
| 2026-05-07 17:36 | 48.01686 | 5.61500 | 37030 ft | 499 kts | 107° |
| 2026-05-07 17:37 | 47.99750 | 5.71439 | 37030 ft | 500 kts | 107° |
| 2026-05-07 17:37 | 47.97800 | 5.81408 | 37028 ft | 500 kts | 107° |
| 2026-05-07 17:38 | 47.95838 | 5.91380 | 37030 ft | 501 kts | 108° |
| 2026-05-07 17:38 | 47.93868 | 6.01361 | 37028 ft | 501 kts | 107° |
| 2026-05-07 17:39 | 47.91885 | 6.11354 | 37029 ft | 502 kts | 108° |
| 2026-05-07 17:39 | 47.89894 | 6.21320 | 37027 ft | 502 kts | 108° |
| 2026-05-07 17:40 | 47.88892 | 6.26322 | 36564 ft | 509 kts | 108° |
| 2026-05-07 17:40 | 47.87871 | 6.31405 | 35810 ft | 512 kts | 108° |
| 2026-05-07 17:40 | 47.86850 | 6.36470 | 34893 ft | 513 kts | 107° |
| 2026-05-07 17:40 | 47.85815 | 6.41596 | 33900 ft | 517 kts | 107° |
| 2026-05-07 17:41 | 47.84775 | 6.46735 | 32970 ft | 517 kts | 107° |
| 2026-05-07 17:41 | 47.83738 | 6.51845 | 32089 ft | 516 kts | 107° |
| 2026-05-07 17:41 | 47.82699 | 6.56955 | 31091 ft | 517 kts | 107° |
| 2026-05-07 17:41 | 47.81657 | 6.62067 | 30278 ft | 513 kts | 107° |
| 2026-05-07 17:42 | 47.80624 | 6.67114 | 29629 ft | 506 kts | 107° |
| 2026-05-07 17:42 | 47.79606 | 6.72081 | 28981 ft | 499 kts | 107° |
| 2026-05-07 17:42 | 47.78599 | 6.76982 | 28323 ft | 494 kts | 108° |
| 2026-05-07 17:42 | 47.77596 | 6.81851 | 27687 ft | 488 kts | 108° |
| 2026-05-07 17:43 | 47.76605 | 6.86650 | 27053 ft | 483 kts | 108° |
| 2026-05-07 17:43 | 47.75624 | 6.91390 | 26409 ft | 478 kts | 108° |
| 2026-05-07 17:43 | 47.74649 | 6.96087 | 25791 ft | 474 kts | 108° |
| 2026-05-07 17:43 | 47.73681 | 7.00742 | 25161 ft | 469 kts | 108° |
| 2026-05-07 17:44 | 47.72723 | 7.05345 | 24541 ft | 464 kts | 108° |
| 2026-05-07 17:44 | 47.71767 | 7.09918 | 23917 ft | 460 kts | 108° |
| 2026-05-07 17:44 | 47.70848 | 7.14309 | 23318 ft | 457 kts | 108° |
| 2026-05-07 17:44 | 47.69907 | 7.18790 | 22710 ft | 453 kts | 108° |
| 2026-05-07 17:45 | 47.68971 | 7.23237 | 22097 ft | 449 kts | 108° |
| 2026-05-07 17:45 | 47.68041 | 7.27643 | 21483 ft | 446 kts | 108° |
| 2026-05-07 17:45 | 47.67118 | 7.32010 | 20882 ft | 442 kts | 108° |
| 2026-05-07 17:45 | 47.66200 | 7.36347 | 20275 ft | 438 kts | 108° |
| 2026-05-07 17:46 | 47.65290 | 7.40640 | 19680 ft | 434 kts | 108° |
| 2026-05-07 17:46 | 47.64386 | 7.44900 | 19070 ft | 431 kts | 108° |
| 2026-05-07 17:46 | 47.63486 | 7.49124 | 18481 ft | 428 kts | 108° |
| 2026-05-07 17:46 | 47.62562 | 7.53301 | 17871 ft | 425 kts | 110° |
| 2026-05-07 17:47 | 47.61592 | 7.57419 | 17269 ft | 421 kts | 110° |
| 2026-05-07 17:47 | 47.60614 | 7.61500 | 16682 ft | 418 kts | 110° |
| 2026-05-07 17:47 | 47.59646 | 7.65556 | 16074 ft | 416 kts | 110° |
| 2026-05-07 17:47 | 47.58691 | 7.69587 | 15481 ft | 413 kts | 110° |
| 2026-05-07 17:48 | 47.57746 | 7.73583 | 14864 ft | 411 kts | 110° |
| 2026-05-07 17:48 | 47.56805 | 7.77569 | 14290 ft | 409 kts | 110° |
| 2026-05-07 17:48 | 47.55873 | 7.81520 | 13706 ft | 406 kts | 110° |
| 2026-05-07 17:48 | 47.54948 | 7.85445 | 13184 ft | 402 kts | 110° |
| 2026-05-07 17:49 | 47.54030 | 7.89326 | 12599 ft | 388 kts | 110° |
| 2026-05-07 17:49 | 47.53151 | 7.93041 | 11963 ft | 382 kts | 110° |
| 2026-05-07 17:49 | 47.52272 | 7.96748 | 11394 ft | 382 kts | 110° |
| 2026-05-07 17:49 | 47.51392 | 8.00449 | 10961 ft | 378 kts | 110° |
| 2026-05-07 17:50 | 47.50534 | 8.04050 | 10802 ft | 367 kts | 110° |
| 2026-05-07 17:50 | 47.49704 | 8.07547 | 10641 ft | 354 kts | 110° |
| 2026-05-07 17:50 | 47.48901 | 8.10919 | 10513 ft | 343 kts | 110° |
| 2026-05-07 17:50 | 47.48098 | 8.14234 | 10528 ft | 350 kts | 113° |
| 2026-05-07 17:51 | 47.46905 | 8.17540 | 10530 ft | 376 kts | 124° |
| 2026-05-07 17:51 | 47.45424 | 8.20749 | 10525 ft | 376 kts | 126° |
| 2026-05-07 17:51 | 47.43945 | 8.23936 | 10515 ft | 375 kts | 125° |
| 2026-05-07 17:51 | 47.42494 | 8.27121 | 10515 ft | 374 kts | 124° |
| 2026-05-07 17:52 | 47.41072 | 8.30289 | 10509 ft | 363 kts | 124° |
| 2026-05-07 17:52 | 47.39722 | 8.33327 | 10502 ft | 346 kts | 124° |
| 2026-05-07 17:52 | 47.38429 | 8.36238 | 10493 ft | 332 kts | 124° |
| 2026-05-07 17:52 | 47.37187 | 8.39038 | 10379 ft | 321 kts | 124° |
| 2026-05-07 17:53 | 47.36001 | 8.41675 | 10229 ft | 294 kts | 128° |
| 2026-05-07 17:53 | 47.34537 | 8.43648 | 10141 ft | 283 kts | 153° |
| 2026-05-07 17:53 | 47.32769 | 8.44881 | 10065 ft | 281 kts | 157° |
| 2026-05-07 17:53 | 47.30972 | 8.46089 | 9764 ft | 287 kts | 156° |
| 2026-05-07 17:54 | 47.29149 | 8.47331 | 9439 ft | 288 kts | 156° |
| 2026-05-07 17:54 | 47.27333 | 8.48574 | 9115 ft | 287 kts | 156° |
| 2026-05-07 17:54 | 47.25525 | 8.49800 | 8945 ft | 284 kts | 156° |
| 2026-05-07 17:54 | 47.23741 | 8.51004 | 8886 ft | 280 kts | 156° |
| 2026-05-07 17:55 | 47.21980 | 8.52189 | 8814 ft | 276 kts | 156° |
| 2026-05-07 17:55 | 47.20235 | 8.53358 | 8663 ft | 275 kts | 156° |
| 2026-05-07 17:55 | 47.18493 | 8.54523 | 8485 ft | 276 kts | 156° |
| 2026-05-07 17:55 | 47.16748 | 8.55691 | 8349 ft | 275 kts | 156° |
| 2026-05-07 17:56 | 47.15012 | 8.56844 | 8244 ft | 272 kts | 156° |
| 2026-05-07 17:56 | 47.13354 | 8.58066 | 8138 ft | 259 kts | 144° |
| 2026-05-07 17:56 | 47.12220 | 8.59998 | 7833 ft | 248 kts | 114° |
| 2026-05-07 17:56 | 47.11924 | 8.62446 | 7541 ft | 245 kts | 82° |
| 2026-05-07 17:57 | 47.12336 | 8.64823 | 7399 ft | 239 kts | 72° |
| 2026-05-07 17:57 | 47.12673 | 8.66371 | 7298 ft | 238 kts | 70° |
| 2026-05-07 17:57 | 47.13891 | 8.68976 | 6889 ft | 237 kts | 31° |
| 2026-05-07 17:57 | 47.15390 | 8.69830 | 6718 ft | 224 kts | 12° |
| 2026-05-07 17:58 | 47.16382 | 8.70158 | 6669 ft | 217 kts | 12° |
| 2026-05-07 17:58 | 47.17885 | 8.70647 | 6602 ft | 224 kts | 12° |
| 2026-05-07 17:58 | 47.19401 | 8.71140 | 6436 ft | 222 kts | 12° |
| 2026-05-07 17:58 | 47.20897 | 8.71420 | 6237 ft | 213 kts | 352° |
| 2026-05-07 17:59 | 47.22281 | 8.70792 | 6123 ft | 207 kts | 337° |
| 2026-05-07 17:59 | 47.23631 | 8.69962 | 6079 ft | 211 kts | 335° |
| 2026-05-07 17:59 | 47.24958 | 8.69087 | 6023 ft | 208 kts | 335° |
| 2026-05-07 17:59 | 47.26281 | 8.68191 | 5724 ft | 208 kts | 334° |
| 2026-05-07 18:00 | 47.27591 | 8.67296 | 5443 ft | 207 kts | 334° |
| 2026-05-07 18:00 | 47.28890 | 8.66408 | 5148 ft | 205 kts | 334° |
| 2026-05-07 18:00 | 47.30180 | 8.65525 | 4844 ft | 204 kts | 335° |
| 2026-05-07 18:00 | 47.31463 | 8.64648 | 4549 ft | 202 kts | 335° |
| 2026-05-07 18:01 | 47.32735 | 8.63777 | 4253 ft | 200 kts | 335° |
| 2026-05-07 18:01 | 47.33996 | 8.62913 | 3964 ft | 199 kts | 335° |
| 2026-05-07 18:01 | 47.35217 | 8.62078 | 3699 ft | 187 kts | 336° |
| 2026-05-07 18:01 | 47.36352 | 8.61300 | 3435 ft | 173 kts | 335° |
| 2026-05-07 18:02 | 47.38334 | 8.59940 | 2971 ft | 150 kts | 335° |
| 2026-05-07 18:02 | 47.39286 | 8.59287 | 2756 ft | 151 kts | 335° |
| 2026-05-07 18:02 | 47.40232 | 8.58638 | 2510 ft | 149 kts | 335° |
| 2026-05-07 18:03 | 47.41169 | 8.57994 | 2312 ft | 148 kts | 335° |
| 2026-05-07 18:03 | 47.42103 | 8.57353 | 2090 ft | 150 kts | 335° |
| 2026-05-07 18:03 | 47.43046 | 8.56704 | 1877 ft | 148 kts | 335° |
| 2026-05-07 18:03 | 47.43978 | 8.56063 | 1635 ft | 147 kts | 334° |
| 2026-05-07 18:04 | 47.44895 | 8.55429 | 1436 ft | 145 kts | 334° |
| 2026-05-07 18:04 | 47.45767 | 8.54835 | 1408 ft | 126 kts | 336° |
| 2026-05-07 18:04 | 47.46419 | 8.54381 | 1404 ft | 81 kts | 334° |
| 2026-05-07 18:04 | 47.46780 | 8.54139 | 1404 ft | 38 kts | 336° |
| 2026-05-07 18:05 | 47.46974 | 8.54030 | 1406 ft | 18 kts | 11° |
| 2026-05-07 18:05 | 47.47021 | 8.54175 | 1402 ft | 17 kts | 104° |
| 2026-05-07 18:05 | 47.46954 | 8.54294 | 1410 ft | 14 kts | 138° |
| 2026-05-07 18:05 | 47.46871 | 8.54372 | 1410 ft | 14 kts | 150° |
| 2026-05-07 18:06 | 47.46805 | 8.54477 | 1402 ft | 14 kts | 125° |
| 2026-05-07 18:06 | 47.46741 | 8.54588 | 1411 ft | 14 kts | 146° |
| 2026-05-07 18:06 | 47.46660 | 8.54645 | 1402 ft | 12 kts | 155° |
| 2026-05-07 18:06 | 47.46587 | 8.54695 | 1402 ft | 12 kts | 155° |
| 2026-05-07 18:07 | 47.46514 | 8.54745 | 1405 ft | 12 kts | 155° |
| 2026-05-07 18:07 | 47.46440 | 8.54789 | 1406 ft | 12 kts | 169° |
| 2026-05-07 18:07 | 47.46361 | 8.54769 | 1405 ft | 12 kts | 198° |
| 2026-05-07 18:07 | 47.46282 | 8.54762 | 1402 ft | 12 kts | 159° |
| 2026-05-07 18:08 | 47.46208 | 8.54814 | 1402 ft | 12 kts | 155° |
| 2026-05-07 18:08 | 47.46133 | 8.54865 | 1403 ft | 12 kts | 155° |
| 2026-05-07 18:08 | 47.46059 | 8.54915 | 1407 ft | 12 kts | 156° |
| 2026-05-07 18:08 | 47.46002 | 8.54994 | 1406 ft | 12 kts | 105° |
| 2026-05-07 18:09 | 47.45993 | 8.55115 | 1401 ft | 12 kts | 96° |
| 2026-05-07 18:09 | 47.45984 | 8.55242 | 1406 ft | 12 kts | 98° |
| 2026-05-07 18:09 | 47.46005 | 8.55317 | 1407 ft | 7 kts | 31° |
| 2026-05-07 18:09 | 47.46051 | 8.55336 | 1409 ft | 4 kts | 7° |
| 2026-05-07 18:10 | 47.46053 | 8.55337 | 1402 ft | 0 kts | 6° |